UA5043 / N969SW 7700 Squawk Report (19th of May, 2022)

Aircraft CRJ2 Reg No. N969SW Age N/A
Model Regional-Jet Jet engines 2 First flight 12-03
Registered 29-12-03 Rollout 12-03 Delivered 29-12-03
Construction No. 7876 Line No. N/A Series 200LR
ADSHEX AD7F3A Airline name United Express Owner SkyWest Airlines
Airfield based Chicago O`Hare~IL~N First tracked N/A

Flight history for N969SW

Route Flight No Date Playback
General Mitchell Intl (MKE) - Tucson Intl (TUS) N/A 2022-06-10 03:05:00
Newark Liberty Intl (EWR) - General Mitchell Intl (MKE) N/A 2022-05-25 15:29:00
Plattsburgh Intl (PBG) - Washington Dulles International (IAD) UA5043 2022-05-19 15:39:00
Washington Dulles International (IAD) - Plattsburgh Intl (PBG) UA5052 2022-05-18 23:18:00
John Murtha Johnstown-Cambria County Airport (JST) - Washington Dulles International (IAD) OO564Y 2022-05-18 20:33:00
North Central West Virginia (CKB) - John Murtha Johnstown-Cambria County Airport (JST) OO497Y 2022-05-18 20:02:00
Chicago Ohare Intl (ORD) - North Central West Virginia (CKB) - John Murtha Johnstown-Cambria County Airport (JST) - Washington Dulles International (IAD) UA5097 2022-05-18 18:39:00
Springfield Branson Natl (SGF) - Chicago Ohare Intl (ORD) UA5525 2022-05-18 16:26:00
Chicago Ohare Intl (ORD) - Springfield Branson Natl (SGF) UA5496 2022-05-18 02:04:00
University Park Airport (SCE) - Chicago Ohare Intl (ORD) UA5498 2022-05-17 23:23:00
Chicago Ohare Intl (ORD) - University Park Airport (SCE) UA5492 2022-05-17 20:42:00
Memphis Intl (MEM) - Chicago Ohare Intl (ORD) UA4726 2022-05-17 18:27:00
Chicago Ohare Intl (ORD) - Memphis Intl (MEM) UA4759 2022-05-17 16:03:00
Asheville Regional Airport (AVL) - Chicago Ohare Intl (ORD) UA4659 2022-05-17 12:56:00
Chicago Ohare Intl (ORD) - Asheville Regional Airport (AVL) UA5448 2022-05-17 02:08:00
University Park Airport (SCE) - Chicago Ohare Intl (ORD) UA5498 2022-05-16 23:21:00
Chicago Ohare Intl (ORD) - University Park Airport (SCE) UA5492 2022-05-16 20:39:00
Harrisburg Intl (MDT) - Chicago Ohare Intl (ORD) UA5522 2022-05-16 16:42:00
Chicago Ohare Intl (ORD) - Harrisburg Intl (MDT) UA4756 2022-05-16 13:52:00
University Park Airport (SCE) - Chicago Ohare Intl (ORD) UA5498 2022-05-15 23:55:00
Time Lat Lon Altitude Heading Speed Vertical Rate
2022-05-19 15:38:48 GMT 40.699345 -74.181625 0 182 9
2022-05-19 15:38:35 GMT 40.700008 -74.181671 0 260 9
2022-05-19 15:38:34 GMT 40.700020 -74.181572 0 260 9
2022-05-19 15:38:32 GMT 40.700031 -74.181519 0 260 9
2022-05-19 15:38:30 GMT 40.700020 -74.181419 0 261 9
2022-05-19 15:38:29 GMT 40.700031 -74.181343 0 266 8
2022-05-19 15:38:27 GMT 40.700069 -74.181320 0 269 11
We lost coverage of the aircraft here for a total of 51 minutes
2022-05-19 14:47:50 GMT 40.696972 -74.174080 0 222 7 0
2022-05-19 14:47:49 GMT 40.697010 -74.174026 0 221 7 0
2022-05-19 14:47:47 GMT 40.697029 -74.174004 0 221 7 0
2022-05-19 14:47:45 GMT 40.697048 -74.173950 0 220 8 0
2022-05-19 14:47:44 GMT 40.697071 -74.173927 0 221 8 0
2022-05-19 14:47:43 GMT 40.697121 -74.173889 0 221 8 0
2022-05-19 14:47:41 GMT 40.697128 -74.173882 0 221 8 0
2022-05-19 14:47:39 GMT 40.697159 -74.173851 0 220 8 0
2022-05-19 14:47:38 GMT 40.697182 -74.173820 0 220 8 0
2022-05-19 14:47:37 GMT 40.697201 -74.173798 0 220 8 0
2022-05-19 14:47:36 GMT 40.697262 -74.173729 0 219 8 0
2022-05-19 14:47:33 GMT 40.697300 -74.173660 0 218 9 0
2022-05-19 14:47:32 GMT 40.697350 -74.173630 0 218 8 0
2022-05-19 14:47:31 GMT 40.697369 -74.173599 0 218 9 0
2022-05-19 14:47:30 GMT 40.697430 -74.173538 0 217 9 0
2022-05-19 14:47:28 GMT 40.697491 -74.173470 0 214 9 0
2022-05-19 14:47:26 GMT 40.697510 -74.173409 0 209 9 0
2022-05-19 14:47:25 GMT 40.697590 -74.173363 0 201 8 0
2022-05-19 14:47:23 GMT 40.697632 -74.173340 0 183 8 0
2022-05-19 14:47:22 GMT 40.697639 -74.173233 0 186 8 0
2022-05-19 14:47:20 GMT 40.697708 -74.173233 0 209 9 0
2022-05-19 14:47:19 GMT 40.697781 -74.173241 0 225 11 0
2022-05-19 14:47:17 GMT 40.697830 -74.173210 0 232 10 0
2022-05-19 14:47:15 GMT 40.697880 -74.173172 0 248 13 0
2022-05-19 14:47:14 GMT 40.697929 -74.173042 0 269 11 0
2022-05-19 14:47:12 GMT 40.697960 -74.172989 0 284 11 0
2022-05-19 14:47:11 GMT 40.697979 -74.172852 0 306 6 0
2022-05-19 14:47:10 GMT 40.697960 -74.172821 0 304 10 0
2022-05-19 14:47:08 GMT 40.697960 -74.172760 0 313 9 0
2022-05-19 14:47:07 GMT 40.697948 -74.172722 0 318 10 0
2022-05-19 14:47:05 GMT 40.697880 -74.172607 0 323 9 0
2022-05-19 14:47:03 GMT 40.697788 -74.172531 0 320 4 0
2022-05-19 14:47:02 GMT 40.697769 -74.172508 0 316 6 0
2022-05-19 14:47:00 GMT 40.697739 -74.172531 0 317 8 0
2022-05-19 14:46:58 GMT 40.697701 -74.172432 0 324 8 0
2022-05-19 14:46:57 GMT 40.697701 -74.172409 0 319 10 0
2022-05-19 14:46:56 GMT 40.697632 -74.172379 0 307 7 0
2022-05-19 14:46:54 GMT 40.697559 -74.172318 0 317 5 0
2022-05-19 14:46:53 GMT 40.697552 -74.172279 0 310 7 0
2022-05-19 14:46:51 GMT 40.697510 -74.172241 0 314 6 0
2022-05-19 14:46:50 GMT 40.697529 -74.172211 0 322 9 0
2022-05-19 14:46:48 GMT 40.697479 -74.172157 0 321 12 0
2022-05-19 14:46:47 GMT 40.697418 -74.172112 0 319 9 0
2022-05-19 14:46:45 GMT 40.697392 -74.172043 0 328 14 0
2022-05-19 14:46:44 GMT 40.697262 -74.171959 0 320 12 0
2022-05-19 14:46:42 GMT 40.697231 -74.171913 0 327 13 0
2022-05-19 14:46:41 GMT 40.697121 -74.171791 0 326 9 0
2022-05-19 14:46:39 GMT 40.697079 -74.171791 0 322 10 0
2022-05-19 14:46:38 GMT 40.697021 -74.171677 0 335 11 0
2022-05-19 14:46:36 GMT 40.696899 -74.171623 0 335 8 0
2022-05-19 14:46:34 GMT 40.696861 -74.171600 0 338 8 0
2022-05-19 14:46:32 GMT 40.696831 -74.171570 0 341 15 0
2022-05-19 14:46:31 GMT 40.696758 -74.171562 0 336 16 0
2022-05-19 14:46:30 GMT 40.696621 -74.171478 0 334 13 0
2022-05-19 14:46:28 GMT 40.696480 -74.171402 0 329 10 0
2022-05-19 14:46:26 GMT 40.696442 -74.171356 0 330 9 0
2022-05-19 14:46:25 GMT 40.696400 -74.171341 0 327 9 0
2022-05-19 14:46:24 GMT 40.696331 -74.171272 0 337 10 0
2022-05-19 14:46:22 GMT 40.696251 -74.171242 0 333 11 0
2022-05-19 14:46:20 GMT 40.696239 -74.171204 0 341 14 0
2022-05-19 14:46:18 GMT 40.696140 -74.171127 0 345 15 0
2022-05-19 14:46:16 GMT 40.695980 -74.171112 0 336 12 0
2022-05-19 14:46:15 GMT 40.695930 -74.171066 0 338 11 0
2022-05-19 14:46:14 GMT 40.695839 -74.171013 0 344 12 0
2022-05-19 14:46:12 GMT 40.695782 -74.170967 0 350 12 0
2022-05-19 14:46:10 GMT 40.695671 -74.170952 0 349 10 0
2022-05-19 14:46:09 GMT 40.695572 -74.170929 0 344 9 0
2022-05-19 14:46:07 GMT 40.695530 -74.170921 0 341 9 0
2022-05-19 14:46:05 GMT 40.695450 -74.170898 0 346 8 0
2022-05-19 14:46:04 GMT 40.695419 -74.170868 0 350 8 0
2022-05-19 14:46:02 GMT 40.695339 -74.170837 0 349 9 0
2022-05-19 14:46:01 GMT 40.695290 -74.170837 0 351 8 0
2022-05-19 14:45:59 GMT 40.695221 -74.170822 0 348 7 0
2022-05-19 14:45:58 GMT 40.695179 -74.170807 0 348 6 0
2022-05-19 14:45:56 GMT 40.695122 -74.170792 0 352 6 0
2022-05-19 14:45:54 GMT 40.695042 -74.170776 0 348 2 0
2022-05-19 14:45:53 GMT 40.695049 -74.170769 0 352 5 0
2022-05-19 14:45:51 GMT 40.695011 -74.170769 0 348 6 0
2022-05-19 14:45:50 GMT 40.694981 -74.170769 0 345 6 0
2022-05-19 14:45:48 GMT 40.694939 -74.170731 0 352 8 0
2022-05-19 14:45:47 GMT 40.694889 -74.170761 0 352 7 0
2022-05-19 14:45:45 GMT 40.694809 -74.170692 0 1 4 0
2022-05-19 14:45:43 GMT 40.694778 -74.170761 0 340 6 0
2022-05-19 14:45:42 GMT 40.694759 -74.170731 0 355 9 0
2022-05-19 14:45:40 GMT 40.694710 -74.170670 0 8 7 0
2022-05-19 14:45:38 GMT 40.694641 -74.170692 0 0 9 0
2022-05-19 14:45:37 GMT 40.694580 -74.170700 0 0 11 0
2022-05-19 14:45:35 GMT 40.694538 -74.170692 0 358 13 0
2022-05-19 14:45:33 GMT 40.694401 -74.170708 0 357 10 0
2022-05-19 14:45:32 GMT 40.694351 -74.170670 0 2 9 0
2022-05-19 14:45:30 GMT 40.694271 -74.170692 0 3 10 0
2022-05-19 14:45:29 GMT 40.694221 -74.170677 0 5 10 0
2022-05-19 14:45:27 GMT 40.694130 -74.170692 0 2 9 0
2022-05-19 14:45:26 GMT 40.694080 -74.170731 0 359 8 0
2022-05-19 14:45:24 GMT 40.694031 -74.170677 0 9 11 0
2022-05-19 14:45:23 GMT 40.693970 -74.170700 0 8 10 0
2022-05-19 14:45:22 GMT 40.693878 -74.170723 0 13 11 0
2022-05-19 14:45:20 GMT 40.693779 -74.170731 0 14 10 0
2022-05-19 14:45:18 GMT 40.693741 -74.170776 0 8 11 0
2022-05-19 14:45:16 GMT 40.693611 -74.170792 0 13 8 0
2022-05-19 14:45:14 GMT 40.693531 -74.170807 0 13 10 0
2022-05-19 14:45:13 GMT 40.693520 -74.170830 0 12 11 0
2022-05-19 14:45:12 GMT 40.693451 -74.170807 0 21 11 0
2022-05-19 14:45:11 GMT 40.693401 -74.170837 0 20 11 0
2022-05-19 14:45:09 GMT 40.693310 -74.170898 0 18 12 0
2022-05-19 14:45:08 GMT 40.693199 -74.170952 0 19 13 0
2022-05-19 14:45:06 GMT 40.693130 -74.170967 0 25 11 0
2022-05-19 14:45:04 GMT 40.693050 -74.171021 0 22 14 0
2022-05-19 14:45:03 GMT 40.692982 -74.171051 0 21 13 0
2022-05-19 14:45:02 GMT 40.692848 -74.171097 0 31 12 0
2022-05-19 14:45:00 GMT 40.692760 -74.171188 0 25 12 0
2022-05-19 14:44:58 GMT 40.692719 -74.171227 0 22 11 0
2022-05-19 14:44:57 GMT 40.692638 -74.171280 0 25 12 0
2022-05-19 14:44:55 GMT 40.692612 -74.171280 0 24 14 0
2022-05-19 14:44:53 GMT 40.692471 -74.171349 0 27 11 0
2022-05-19 14:44:52 GMT 40.692421 -74.171387 0 27 10 0
2022-05-19 14:44:51 GMT 40.692341 -74.171440 0 31 11 0
2022-05-19 14:44:48 GMT 40.692242 -74.171501 0 30 11 0
2022-05-19 14:44:47 GMT 40.692181 -74.171577 0 26 14 0
2022-05-19 14:44:45 GMT 40.692108 -74.171623 0 22 13 0
2022-05-19 14:44:44 GMT 40.692059 -74.171677 0 19 12 0
2022-05-19 14:44:42 GMT 40.691952 -74.171722 0 21 11 0
2022-05-19 14:44:41 GMT 40.691910 -74.171722 0 27 13 0
2022-05-19 14:44:40 GMT 40.691849 -74.171768 0 24 12 0
2022-05-19 14:44:38 GMT 40.691750 -74.171837 0 23 12 0
2022-05-19 14:44:37 GMT 40.691700 -74.171883 0 21 13 0
2022-05-19 14:44:35 GMT 40.691570 -74.171921 0 30 10 0
2022-05-19 14:44:34 GMT 40.691528 -74.171951 0 30 11 0
2022-05-19 14:44:33 GMT 40.691460 -74.172020 0 27 12 0
2022-05-19 14:44:31 GMT 40.691360 -74.172081 0 25 12 0
2022-05-19 14:44:29 GMT 40.691311 -74.172127 0 23 11 0
2022-05-19 14:44:28 GMT 40.691261 -74.172180 0 22 9 0
2022-05-19 14:44:27 GMT 40.691212 -74.172173 0 23 9 0
2022-05-19 14:44:25 GMT 40.691139 -74.172218 0 25 10 0
2022-05-19 14:44:24 GMT 40.691109 -74.172234 0 24 12 0
2022-05-19 14:44:22 GMT 40.691010 -74.172318 0 20 11 0
2022-05-19 14:44:21 GMT 40.690910 -74.172348 0 29 10 0
2022-05-19 14:44:19 GMT 40.690861 -74.172363 0 30 9 0
2022-05-19 14:44:18 GMT 40.690819 -74.172440 0 21 11 0
2022-05-19 14:44:15 GMT 40.690720 -74.172470 0 27 12 0
2022-05-19 14:44:14 GMT 40.690659 -74.172508 0 24 11 0
2022-05-19 14:44:12 GMT 40.690571 -74.172592 0 24 12 0
2022-05-19 14:44:11 GMT 40.690460 -74.172623 0 30 10 0
2022-05-19 14:44:08 GMT 40.690399 -74.172691 0 27 11 0
2022-05-19 14:44:07 GMT 40.690350 -74.172707 0 30 11 0
2022-05-19 14:44:06 GMT 40.690262 -74.172783 0 27 10 0
2022-05-19 14:44:04 GMT 40.690189 -74.172836 0 23 11 0
2022-05-19 14:44:02 GMT 40.690159 -74.172867 0 20 13 0
2022-05-19 14:44:00 GMT 40.690048 -74.172920 0 20 13 0
2022-05-19 14:43:59 GMT 40.689999 -74.172974 0 19 13 0
2022-05-19 14:43:57 GMT 40.689869 -74.173012 0 25 11 0
2022-05-19 14:43:56 GMT 40.689819 -74.173012 0 28 12 0
2022-05-19 14:43:54 GMT 40.689739 -74.173111 0 17 11 0
2022-05-19 14:43:53 GMT 40.689709 -74.173126 0 21 13 0
2022-05-19 14:43:52 GMT 40.689579 -74.173187 0 26 9 0
2022-05-19 14:43:50 GMT 40.689529 -74.173180 0 32 10 0
2022-05-19 14:43:48 GMT 40.689449 -74.173241 0 34 11 0
2022-05-19 14:43:47 GMT 40.689362 -74.173317 0 28 10 0
2022-05-19 14:43:45 GMT 40.689331 -74.173370 0 25 9 0
2022-05-19 14:43:43 GMT 40.689259 -74.173409 0 27 10 0
2022-05-19 14:43:42 GMT 40.689220 -74.173424 0 30 10 0
2022-05-19 14:43:40 GMT 40.689140 -74.173492 0 25 9 0
2022-05-19 14:43:39 GMT 40.689098 -74.173523 0 24 9 0
2022-05-19 14:43:37 GMT 40.689030 -74.173569 0 22 10 0
2022-05-19 14:43:35 GMT 40.688938 -74.173622 0 20 10 0
2022-05-19 14:43:33 GMT 40.688839 -74.173660 0 28 7 0
2022-05-19 14:43:32 GMT 40.688820 -74.173660 0 30 9 0
2022-05-19 14:43:31 GMT 40.688751 -74.173721 0 27 9 0
2022-05-19 14:43:29 GMT 40.688690 -74.173759 0 26 10 0
2022-05-19 14:43:27 GMT 40.688641 -74.173790 0 31 9 0
2022-05-19 14:43:26 GMT 40.688599 -74.173820 0 30 8 0
2022-05-19 14:43:24 GMT 40.688530 -74.173889 0 27 7 0
2022-05-19 14:43:23 GMT 40.688499 -74.173889 0 27 8 0
2022-05-19 14:43:21 GMT 40.688412 -74.173973 0 24 8 0
2022-05-19 14:43:19 GMT 40.688370 -74.173973 0 27 9 0
2022-05-19 14:43:17 GMT 40.688309 -74.174042 0 22 10 0
2022-05-19 14:43:16 GMT 40.688259 -74.174057 0 26 8 0
2022-05-19 14:43:14 GMT 40.688190 -74.174088 0 25 10 0
2022-05-19 14:43:13 GMT 40.688110 -74.174149 0 25 9 0
2022-05-19 14:43:11 GMT 40.688068 -74.174171 0 26 9 0
2022-05-19 14:43:10 GMT 40.687988 -74.174217 0 24 9 0
2022-05-19 14:43:08 GMT 40.687950 -74.174248 0 24 9 0
2022-05-19 14:43:07 GMT 40.687870 -74.174271 0 29 9 0
2022-05-19 14:43:05 GMT 40.687840 -74.174309 0 26 10 0
2022-05-19 14:43:04 GMT 40.687752 -74.174370 0 27 7 0
2022-05-19 14:43:02 GMT 40.687698 -74.174393 0 27 9 0
2022-05-19 14:43:00 GMT 40.687649 -74.174438 0 24 7 0
2022-05-19 14:42:59 GMT 40.687618 -74.174469 0 23 8 0
2022-05-19 14:42:58 GMT 40.687561 -74.174477 0 31 10 0
2022-05-19 14:42:56 GMT 40.687469 -74.174561 0 22 8 0
2022-05-19 14:42:53 GMT 40.687420 -74.174606 0 18 10 0
2022-05-19 14:42:52 GMT 40.687382 -74.174629 0 19 11 0
2022-05-19 14:42:50 GMT 40.687271 -74.174637 0 30 10 0
2022-05-19 14:42:49 GMT 40.687229 -74.174698 0 22 8 0
2022-05-19 14:42:48 GMT 40.687160 -74.174751 0 21 9 0
2022-05-19 14:42:46 GMT 40.687119 -74.174751 0 26 8 0
2022-05-19 14:42:44 GMT 40.687050 -74.174789 0 31 8 0
2022-05-19 14:42:42 GMT 40.686981 -74.174820 0 39 7 0
2022-05-19 14:42:41 GMT 40.686909 -74.174881 0 42 6 0
2022-05-19 14:42:39 GMT 40.686890 -74.174911 0 34 5 0
2022-05-19 14:42:37 GMT 40.686829 -74.175003 0 15 6 0
2022-05-19 14:42:35 GMT 40.686798 -74.175011 0 16 6 0
2022-05-19 14:42:34 GMT 40.686779 -74.175034 0 14 8 0
2022-05-19 14:42:32 GMT 40.686710 -74.175041 0 13 7 0
2022-05-19 14:42:31 GMT 40.686691 -74.175072 0 12 9 0
2022-05-19 14:42:29 GMT 40.686588 -74.175079 0 29 6 0
2022-05-19 14:42:28 GMT 40.686569 -74.175056 0 39 8 0
2022-05-19 14:42:26 GMT 40.686489 -74.175087 0 42 8 0
2022-05-19 14:42:25 GMT 40.686451 -74.175194 0 26 6 0
2022-05-19 14:42:23 GMT 40.686440 -74.175217 0 24 8 0
2022-05-19 14:42:22 GMT 40.686409 -74.175232 0 23 8 0
2022-05-19 14:42:21 GMT 40.686340 -74.175270 0 28 9 0
2022-05-19 14:42:19 GMT 40.686298 -74.175308 0 26 7 0
2022-05-19 14:42:17 GMT 40.686241 -74.175323 0 32 10 0
2022-05-19 14:42:16 GMT 40.686218 -74.175369 0 20 10 0
2022-05-19 14:42:15 GMT 40.686150 -74.175438 0 356 10 0
2022-05-19 14:42:13 GMT 40.686100 -74.175468 0 339 9 0
2022-05-19 14:42:11 GMT 40.686008 -74.175461 0 324 7 0
2022-05-19 14:42:10 GMT 40.685970 -74.175438 0 315 7 0
2022-05-19 14:42:08 GMT 40.685921 -74.175423 0 301 8 0
2022-05-19 14:42:07 GMT 40.685902 -74.175377 0 300 9 0
2022-05-19 14:42:06 GMT 40.685860 -74.175293 0 298 8 0
2022-05-19 14:42:04 GMT 40.685822 -74.175194 0 298 8 0
2022-05-19 14:42:02 GMT 40.685799 -74.175163 0 295 9 0
2022-05-19 14:42:00 GMT 40.685760 -74.175056 0 302 8 0
2022-05-19 14:41:59 GMT 40.685749 -74.175011 0 309 8 0
2022-05-19 14:41:57 GMT 40.685719 -74.174927 0 317 8 0
2022-05-19 14:41:56 GMT 40.685669 -74.174850 0 324 7 0
2022-05-19 14:41:54 GMT 40.685650 -74.174797 0 333 6 0
2022-05-19 14:41:53 GMT 40.685589 -74.174759 0 336 5 0
2022-05-19 14:41:51 GMT 40.685570 -74.174744 0 339 5 0
2022-05-19 14:41:49 GMT 40.685520 -74.174698 0 345 5 0
2022-05-19 14:41:47 GMT 40.685478 -74.174690 0 345 6 0
2022-05-19 14:41:46 GMT 40.685440 -74.174683 0 343 5 0
2022-05-19 14:41:44 GMT 40.685390 -74.174667 0 332 4 0
2022-05-19 14:41:43 GMT 40.685341 -74.174652 0 306 3 0
2022-05-19 14:41:41 GMT 40.685322 -74.174652 0 303 2 0
2022-05-19 14:41:40 GMT 40.685299 -74.174629 0 302 2 0
2022-05-19 14:41:38 GMT 40.685299 -74.174652 0 300 4 0
2022-05-19 14:41:36 GMT 40.685261 -74.174599 0 295 0 0
2022-05-19 14:41:35 GMT 40.685261 -74.174583 0 293 2 0
2022-05-19 14:41:33 GMT 40.685242 -74.174591 0 292 1 0
2022-05-19 14:41:32 GMT 40.685230 -74.174652 0 293 3 0
2022-05-19 14:41:31 GMT 40.685219 -74.174583 0 294 2 0
2022-05-19 14:41:30 GMT 40.685249 -74.174622 0 295 3 0
2022-05-19 14:41:28 GMT 40.685230 -74.174591 0 293 2 0
2022-05-19 14:41:26 GMT 40.685230 -74.174568 0 294 4 0
2022-05-19 14:41:25 GMT 40.685230 -74.174583 0 293 10 0
2022-05-19 14:41:23 GMT 40.685219 -74.174538 0 293 11 0
2022-05-19 14:41:21 GMT 40.685181 -74.174400 0 299 11 0
2022-05-19 14:41:20 GMT 40.685181 -74.174370 0 300 13 0
2022-05-19 14:41:19 GMT 40.685150 -74.174301 0 299 13 0
2022-05-19 14:41:17 GMT 40.685081 -74.174171 0 297 14 0
2022-05-19 14:41:16 GMT 40.685040 -74.174088 0 293 13 0
2022-05-19 14:41:14 GMT 40.684990 -74.173943 0 294 13 0
2022-05-19 14:41:13 GMT 40.684971 -74.173882 0 295 14 0
2022-05-19 14:41:12 GMT 40.684940 -74.173790 0 296 13 0
2022-05-19 14:41:10 GMT 40.684891 -74.173653 0 297 14 0
2022-05-19 14:41:09 GMT 40.684860 -74.173576 0 297 15 0
2022-05-19 14:41:07 GMT 40.684799 -74.173424 0 294 15 0
2022-05-19 14:41:06 GMT 40.684761 -74.173332 0 292 15 0
2022-05-19 14:41:04 GMT 40.684711 -74.173172 0 294 16 0
2022-05-19 14:41:03 GMT 40.684689 -74.173103 0 296 19 0
2022-05-19 14:41:01 GMT 40.684620 -74.172913 0 295 20 0
2022-05-19 14:40:59 GMT 40.684540 -74.172661 0 291 17 0
2022-05-19 14:40:58 GMT 40.684502 -74.172569 0 283 17 0
2022-05-19 14:40:56 GMT 40.684448 -74.172363 0 272 16 0
2022-05-19 14:40:55 GMT 40.684448 -74.172249 0 270 15 0
2022-05-19 14:40:53 GMT 40.684441 -74.172058 0 261 15 0
2022-05-19 14:40:52 GMT 40.684441 -74.171852 0 245 14 0
2022-05-19 14:40:50 GMT 40.684460 -74.171783 0 244 16 0
2022-05-19 14:40:49 GMT 40.684528 -74.171600 0 243 18 0
2022-05-19 14:40:48 GMT 40.684559 -74.171516 0 242 21 0
2022-05-19 14:40:46 GMT 40.684601 -74.171402 0 240 20 0
2022-05-19 14:40:44 GMT 40.684669 -74.171188 0 234 23 0
2022-05-19 14:40:43 GMT 40.684738 -74.171082 0 236 22 0
2022-05-19 14:40:42 GMT 40.684849 -74.170860 0 235 24 0
2022-05-19 14:40:40 GMT 40.684921 -74.170738 0 237 24 0
2022-05-19 14:40:38 GMT 40.685032 -74.170509 0 236 24 0
2022-05-19 14:40:36 GMT 40.685150 -74.170242 0 231 24 0
2022-05-19 14:40:35 GMT 40.685230 -74.170151 0 237 25 0
2022-05-19 14:40:33 GMT 40.685349 -74.169937 0 237 28 0
2022-05-19 14:40:31 GMT 40.685501 -74.169640 0 232 27 0
2022-05-19 14:40:29 GMT 40.685661 -74.169342 0 221 25 0
2022-05-19 14:40:28 GMT 40.685890 -74.169067 0 214 21 0
2022-05-19 14:40:26 GMT 40.685959 -74.168983 0 212 23 0
2022-05-19 14:40:25 GMT 40.686161 -74.168831 0 209 30 0
2022-05-19 14:40:23 GMT 40.686401 -74.168610 0 205 35 0
2022-05-19 14:40:21 GMT 40.686550 -74.168556 0 208 43 0
2022-05-19 14:40:19 GMT 40.686901 -74.168312 0 207 50 0
2022-05-19 14:40:18 GMT 40.687309 -74.167976 0 204 62 0
2022-05-19 14:40:16 GMT 40.687531 -74.167847 0 204 69 0
2022-05-19 14:40:14 GMT 40.688091 -74.167480 175 203 80 0
2022-05-19 14:40:13 GMT 40.688419 -74.167351 175 206 87 0
2022-05-19 14:40:11 GMT 40.689110 -74.166901 175 206 100 0
2022-05-19 14:40:10 GMT 40.689510 -74.166649 200 206 104 -160
2022-05-19 14:40:08 GMT 40.690350 -74.166092 200 205 113 -160
2022-05-19 14:40:07 GMT 40.690819 -74.165787 200 205 117 -160
2022-05-19 14:40:06 GMT 40.691738 -74.165161 200 204 125 128
2022-05-19 14:40:04 GMT 40.692799 -74.164543 200 204 128 -672
2022-05-19 14:40:02 GMT 40.693329 -74.164207 200 204 130 -672
2022-05-19 14:40:01 GMT 40.693871 -74.163872 275 204 132 -672
2022-05-19 14:40:00 GMT 40.694969 -74.163208 275 204 137 -672
2022-05-19 14:39:58 GMT 40.696098 -74.162521 275 205 143 -672
2022-05-19 14:39:55 GMT 40.697311 -74.161812 275 206 142 -672
2022-05-19 14:39:54 GMT 40.697910 -74.161377 275 206 139 -672
2022-05-19 14:39:52 GMT 40.699039 -74.160637 350 205 144 -672
2022-05-19 14:39:51 GMT 40.699661 -74.160278 350 206 144 -672
2022-05-19 14:39:50 GMT 40.700851 -74.159492 350 205 145 -672
2022-05-19 14:39:48 GMT 40.701488 -74.159111 350 207 141 -672
2022-05-19 14:39:46 GMT 40.702641 -74.158302 350 204 144 -672
2022-05-19 14:39:45 GMT 40.703251 -74.157990 400 207 146 -672
2022-05-19 14:39:44 GMT 40.704460 -74.157219 500 207 142 -672
2022-05-19 14:39:42 GMT 40.705070 -74.156754 500 205 135 -672
2022-05-19 14:39:41 GMT 40.705570 -74.156380 500 204 141 -672
2022-05-19 14:39:40 GMT 40.706108 -74.156174 500 207 149 -672
2022-05-19 14:39:38 GMT 40.707340 -74.155350 500 206 145 -672
2022-05-19 14:39:37 GMT 40.707932 -74.155029 500 207 147 -672
2022-05-19 14:39:35 GMT 40.709110 -74.154327 500 209 150 -672
2022-05-19 14:39:34 GMT 40.710369 -74.153229 575 205 138 -672
2022-05-19 14:39:32 GMT 40.710850 -74.152802 575 201 145 -672
2022-05-19 14:39:30 GMT 40.712139 -74.152191 575 203 145 -672
2022-05-19 14:39:29 GMT 40.713402 -74.151527 625 206 144 -672
2022-05-19 14:39:27 GMT 40.714001 -74.151169 625 207 144 -672
2022-05-19 14:39:26 GMT 40.714520 -74.150711 700 204 149 -672
2022-05-19 14:39:24 GMT 40.715771 -74.150017 700 208 148 -672
2022-05-19 14:39:22 GMT 40.716980 -74.149139 700 208 145 -672
2022-05-19 14:39:21 GMT 40.717571 -74.148727 700 207 146 -672
2022-05-19 14:39:19 GMT 40.718800 -74.147888 725 206 143 -672
2022-05-19 14:39:18 GMT 40.719379 -74.147560 725 207 144 -672
2022-05-19 14:39:16 GMT 40.720539 -74.146652 800 203 144 -672
2022-05-19 14:39:15 GMT 40.721149 -74.146278 800 202 143 -672
2022-05-19 14:39:14 GMT 40.722420 -74.145721 800 206 143 -672
2022-05-19 14:39:12 GMT 40.723042 -74.145370 800 208 141 -672
2022-05-19 14:39:10 GMT 40.724190 -74.144547 850 206 141 -672
2022-05-19 14:39:09 GMT 40.724731 -74.144081 850 202 143 -672
2022-05-19 14:39:07 GMT 40.725990 -74.143478 850 206 142 -736
2022-05-19 14:39:05 GMT 40.727131 -74.142693 900 205 143 -736
2022-05-19 14:39:04 GMT 40.727730 -74.142319 900 205 144 -736
2022-05-19 14:39:02 GMT 40.728920 -74.141571 900 205 144 -736
2022-05-19 14:39:00 GMT 40.730122 -74.140778 1,000 204 143 -736
2022-05-19 14:38:59 GMT 40.730728 -74.140427 1,000 204 143 -736
2022-05-19 14:38:58 GMT 40.731972 -74.139679 1,000 205 139 -736
2022-05-19 14:38:56 GMT 40.732498 -74.139359 1,100 205 145 -736
2022-05-19 14:38:54 GMT 40.733730 -74.138588 1,100 205 143 -736
2022-05-19 14:38:53 GMT 40.734360 -74.138237 1,100 206 143 -736
2022-05-19 14:38:52 GMT 40.734921 -74.137871 1,100 205 147 -736
2022-05-19 14:38:51 GMT 40.736141 -74.137077 1,100 205 150 -736
2022-05-19 14:38:49 GMT 40.736759 -74.136673 1,100 205 151 -736
2022-05-19 14:38:48 GMT 40.738029 -74.135887 1,300 205 153 -736
2022-05-19 14:38:46 GMT 40.738640 -74.135490 1,300 205 156 -736
2022-05-19 14:38:44 GMT 40.739960 -74.134689 1,300 205 158 -736
2022-05-19 14:38:42 GMT 40.741940 -74.133430 1,300 205 164 -736
2022-05-19 14:38:40 GMT 40.742641 -74.133003 1,300 205 165 -736
2022-05-19 14:38:39 GMT 40.743309 -74.132561 1,300 205 167 -736
2022-05-19 14:38:37 GMT 40.745380 -74.131241 1,300 205 176 -736
2022-05-19 14:38:35 GMT 40.746078 -74.130821 1,300 206 181 -736
2022-05-19 14:38:33 GMT 40.747551 -74.129852 1,500 205 185 -736
2022-05-19 14:38:32 GMT 40.748341 -74.129333 1,500 205 183 -736
2022-05-19 14:38:31 GMT 40.749840 -74.128372 1,500 205 185 -736
2022-05-19 14:38:29 GMT 40.751369 -74.127373 1,500 205 186 -736
2022-05-19 14:38:27 GMT 40.752140 -74.126877 1,500 205 187 -736
2022-05-19 14:38:26 GMT 40.752949 -74.126404 1,500 205 185 -736
2022-05-19 14:38:24 GMT 40.754490 -74.125427 1,600 206 185 -736
2022-05-19 14:38:23 GMT 40.755249 -74.124931 1,600 206 186 -736
2022-05-19 14:38:21 GMT 40.756802 -74.123909 1,500 205 185 -736
2022-05-19 14:38:20 GMT 40.757549 -74.123398 1,600 205 186 -736
2022-05-19 14:38:18 GMT 40.759060 -74.122437 1,600 205 189 -736
2022-05-19 14:38:16 GMT 40.760658 -74.121483 1,600 206 188 -736
2022-05-19 14:38:15 GMT 40.761440 -74.120987 1,700 206 188 -736
2022-05-19 14:38:13 GMT 40.763031 -74.119980 1,700 206 187 -736
2022-05-19 14:38:11 GMT 40.764591 -74.118927 1,700 206 185 -736
2022-05-19 14:38:10 GMT 40.765331 -74.118446 1,900 206 187 -736
2022-05-19 14:38:08 GMT 40.766899 -74.117439 1,900 206 186 -736
2022-05-19 14:38:07 GMT 40.768478 -74.116417 1,900 206 183 -1216
2022-05-19 14:38:05 GMT 40.770012 -74.115417 1,900 205 181 -1216
2022-05-19 14:38:03 GMT 40.770748 -74.114967 1,900 206 183 -1216
2022-05-19 14:38:02 GMT 40.772240 -74.113991 2,000 205 185 -1216
2022-05-19 14:38:00 GMT 40.772991 -74.113472 2,000 205 186 -1216
2022-05-19 14:37:58 GMT 40.774521 -74.112511 2,000 205 187 -1216
2022-05-19 14:37:57 GMT 40.775318 -74.112000 2,000 205 186 -1216
2022-05-19 14:37:55 GMT 40.776871 -74.111023 2,200 205 186 -1216
2022-05-19 14:37:54 GMT 40.777672 -74.110519 2,200 205 184 -1216
2022-05-19 14:37:52 GMT 40.779202 -74.109520 2,200 205 183 -1216
2022-05-19 14:37:51 GMT 40.779968 -74.109039 2,200 205 183 -1216
2022-05-19 14:37:50 GMT 40.780762 -74.108566 2,200 206 182 -1216
2022-05-19 14:37:49 GMT 40.782249 -74.107582 2,200 206 182 -1216
2022-05-19 14:37:47 GMT 40.783749 -74.106613 2,400 206 183 -1216
2022-05-19 14:37:45 GMT 40.784550 -74.106087 2,400 206 180 -1216
2022-05-19 14:37:43 GMT 40.786060 -74.105110 2,400 206 180 -1216
2022-05-19 14:37:42 GMT 40.787529 -74.104179 2,400 206 183 -1216
2022-05-19 14:37:40 GMT 40.788269 -74.103699 2,400 206 184 -1216
2022-05-19 14:37:38 GMT 40.789799 -74.102699 2,600 206 184 -1216
2022-05-19 14:37:37 GMT 40.790562 -74.102257 2,600 207 185 -1216
2022-05-19 14:37:35 GMT 40.792080 -74.101242 2,600 206 187 -1216
2022-05-19 14:37:34 GMT 40.793541 -74.100227 2,650 207 184 -1600
2022-05-19 14:37:29 GMT 40.797180 -74.097900 2,650 207 185 -1152
2022-05-19 14:37:25 GMT 40.800335 -74.095856 2,725 206 187 -896
2022-05-19 14:37:22 GMT 40.801872 -74.094856 2,750 206 188 -640
2022-05-19 14:37:18 GMT 40.804825 -74.093018 2,775 205 190 -832
2022-05-19 14:37:12 GMT 40.809925 -74.090172 2,850 196 192 -576
2022-05-19 14:37:08 GMT 40.813419 -74.089050 2,900 189 195 -448
2022-05-19 14:37:04 GMT 40.819107 -74.088135 2,925 187 199 -384
2022-05-19 14:36:58 GMT 40.822769 -74.087585 2,975 186 199 -384
2022-05-19 14:36:53 GMT 40.827057 -74.087051 3,000 185 194 -512
2022-05-19 14:36:50 GMT 40.830048 -74.086670 3,025 184 196 -448
2022-05-19 14:36:46 GMT 40.833298 -74.086426 3,075 172 200 -448
2022-05-19 14:36:43 GMT 40.837006 -74.086548 3,075 172 200 -448
2022-05-19 14:36:37 GMT 40.841675 -74.087555 3,100 167 201 -320
2022-05-19 14:36:33 GMT 40.848679 -74.089905 3,125 165 205 -64
2022-05-19 14:36:30 GMT 40.848679 -74.089905 3,125 165 205 -64
2022-05-19 14:36:27 GMT 40.851124 -74.090797 3,125 165 206 -64
2022-05-19 14:36:23 GMT 40.855034 -74.092110 3,125 165 208 -64
2022-05-19 14:36:20 GMT 40.857376 -74.092957 3,125 165 209 -64
2022-05-19 14:36:16 GMT 40.861042 -74.094170 3,150 165 207 0
2022-05-19 14:36:11 GMT 40.866440 -74.096039 3,125 165 204 64
2022-05-19 14:36:08 GMT 40.869186 -74.096977 3,125 165 203 64
2022-05-19 14:36:04 GMT 40.871559 -74.097786 3,125 165 213 -192
2022-05-19 14:36:01 GMT 40.874725 -74.098938 3,125 165 200 64
2022-05-19 14:35:58 GMT 40.878342 -74.100159 3,125 165 198 0
2022-05-19 14:35:55 GMT 40.881912 -74.101379 3,125 164 200 0
2022-05-19 14:35:53 GMT 40.885201 -74.102592 3,125 164 200 0
2022-05-19 14:35:50 GMT 40.885201 -74.102592 3,125 165 201 0
2022-05-19 14:35:46 GMT 40.888916 -74.103882 3,125 165 203 0
2022-05-19 14:35:41 GMT 40.893127 -74.105347 3,150 163 220 -1664
2022-05-19 14:35:38 GMT 40.895817 -74.106277 3,150 165 211 -128
2022-05-19 14:35:35 GMT 40.898163 -74.107117 3,150 165 213 -192
2022-05-19 14:35:32 GMT 40.902145 -74.108528 3,175 164 216 -576
2022-05-19 14:35:29 GMT 40.905075 -74.109558 3,200 164 218 -704
2022-05-19 14:35:26 GMT 40.907227 -74.110352 3,250 163 220 -1280
2022-05-19 14:35:23 GMT 40.910618 -74.111649 3,325 163 220 -1536
2022-05-19 14:35:20 GMT 40.913597 -74.112770 3,425 163 220 -1664
2022-05-19 14:35:17 GMT 40.916111 -74.113708 3,500 163 219 -1600
2022-05-19 14:35:14 GMT 40.919464 -74.115021 3,550 162 219 -1600
2022-05-19 14:35:11 GMT 40.921185 -74.115707 3,575 160 219 -1536
2022-05-19 14:35:08 GMT 40.924210 -74.117065 3,725 157 220 -1536
2022-05-19 14:35:05 GMT 40.927002 -74.118713 3,900 140 223 -1472
2022-05-19 14:35:01 GMT 40.931427 -74.122383 3,875 138 223 -1408
2022-05-19 14:34:58 GMT 40.933617 -74.124878 3,950 133 224 -1344
2022-05-19 14:34:55 GMT 40.935242 -74.127197 4,025 119 224 -1024
2022-05-19 14:34:52 GMT 40.939480 -74.136429 4,100 115 224 -896
2022-05-19 14:34:48 GMT 40.939480 -74.136429 4,125 104 223 -192
2022-05-19 14:34:45 GMT 40.940365 -74.139801 4,125 104 223 -192
2022-05-19 14:34:41 GMT 40.941925 -74.150391 4,150 98 224 -64
2022-05-19 14:34:38 GMT 40.941925 -74.150391 4,150 97 225 -192
2022-05-19 14:34:35 GMT 40.942200 -74.153137 4,150 97 225 -192
2022-05-19 14:34:32 GMT 40.942600 -74.156837 4,175 97 226 -128
2022-05-19 14:34:29 GMT 40.943024 -74.161316 4,175 97 226 -64
2022-05-19 14:34:26 GMT 40.943577 -74.166702 4,200 98 244 -960
2022-05-19 14:34:22 GMT 40.944042 -74.170822 4,150 98 232 128
2022-05-19 14:34:18 GMT 40.944763 -74.177490 4,175 98 241 -704
2022-05-19 14:34:15 GMT 40.945724 -74.186584 4,225 98 243 -896
2022-05-19 14:34:11 GMT 40.945724 -74.186584 4,350 98 252 -1344
2022-05-19 14:34:08 GMT 40.946323 -74.191795 4,350 98 250 -1344
2022-05-19 14:34:05 GMT 40.946789 -74.196045 4,400 98 252 -1344
2022-05-19 14:34:01 GMT 40.948334 -74.209229 4,650 98 257 -1408
2022-05-19 14:33:57 GMT 40.948334 -74.209229 4,600 98 263 -1408
2022-05-19 14:33:54 GMT 40.948792 -74.213318 4,900 98 272 -1280
2022-05-19 14:33:51 GMT 40.949249 -74.217529 4,775 98 268 -1472
2022-05-19 14:33:47 GMT 40.950188 -74.225815 4,925 98 272 -1280
2022-05-19 14:33:44 GMT 40.950623 -74.229248 4,900 99 273 -1216
2022-05-19 14:33:40 GMT 40.951218 -74.234497 4,975 99 275 -960
2022-05-19 14:33:37 GMT 40.951904 -74.240173 5,025 99 279 -768
2022-05-19 14:33:34 GMT 40.952637 -74.245911 5,075 99 282 -640
2022-05-19 14:33:31 GMT 40.953415 -74.252014 5,100 99 283 -512
2022-05-19 14:33:28 GMT 40.954006 -74.256653 5,125 99 283 -128
2022-05-19 14:33:25 GMT 40.954605 -74.261292 5,125 99 284 0
2022-05-19 14:33:22 GMT 40.955494 -74.268265 5,125 99 284 -64
2022-05-19 14:33:19 GMT 40.956070 -74.272583 5,125 99 284 -64
2022-05-19 14:33:16 GMT 40.956711 -74.277710 5,125 99 284 -64
2022-05-19 14:33:13 GMT 40.957172 -74.281311 5,150 99 284 -64
2022-05-19 14:33:10 GMT 40.957825 -74.286804 5,150 99 284 -64
2022-05-19 14:33:07 GMT 40.958588 -74.292847 5,150 99 285 -64
2022-05-19 14:33:03 GMT 40.959366 -74.299011 5,150 99 285 -64
2022-05-19 14:33:00 GMT 40.961269 -74.314392 5,150 99 285 -64
2022-05-19 14:32:54 GMT 40.961269 -74.314392 5,150 99 286 64
2022-05-19 14:32:51 GMT 40.961838 -74.319031 5,125 99 286 0
2022-05-19 14:32:48 GMT 40.962757 -74.326439 5,125 99 284 64
2022-05-19 14:32:44 GMT 40.963318 -74.330940 5,125 99 282 64
2022-05-19 14:32:41 GMT 40.963966 -74.336052 5,125 99 282 64
2022-05-19 14:32:38 GMT 40.964619 -74.341232 5,125 99 282 64
2022-05-19 14:32:34 GMT 40.965729 -74.349854 5,125 99 281 0
2022-05-19 14:32:31 GMT 40.966202 -74.353470 5,125 99 281 0
2022-05-19 14:32:28 GMT 40.966763 -74.357841 5,125 99 280 0
2022-05-19 14:32:25 GMT 40.967598 -74.364273 5,125 99 281 -64
2022-05-19 14:32:22 GMT 40.969345 -74.376587 5,125 104 282 -64
2022-05-19 14:32:17 GMT 40.969345 -74.376587 5,125 102 281 -64
2022-05-19 14:32:14 GMT 40.970673 -74.383240 5,150 107 282 -64
2022-05-19 14:32:11 GMT 40.972347 -74.388863 5,150 114 282 -128
2022-05-19 14:32:07 GMT 40.974609 -74.394531 5,150 124 281 -128
2022-05-19 14:32:04 GMT 40.975792 -74.396980 5,150 126 280 -128
2022-05-19 14:32:01 GMT 40.978817 -74.402161 5,175 136 279 -256
2022-05-19 14:31:58 GMT 40.981659 -74.405884 5,175 139 278 -256
2022-05-19 14:31:53 GMT 40.987473 -74.411560 5,275 175 281 -1280
2022-05-19 14:31:48 GMT 40.992737 -74.415024 5,300 159 282 -1152
2022-05-19 14:31:44 GMT 40.998695 -74.417458 5,400 167 281 -1344
2022-05-19 14:31:40 GMT 41.003220 -74.418518 5,475 173 281 -1344
2022-05-19 14:31:36 GMT 41.013454 -74.419701 5,650 175 281 -1280
2022-05-19 14:31:32 GMT 41.018005 -74.420166 5,650 175 281 -1280
2022-05-19 14:31:29 GMT 41.018005 -74.420166 5,700 175 281 -1280
2022-05-19 14:31:25 GMT 41.021786 -74.420578 5,775 175 282 -1280
2022-05-19 14:31:21 GMT 41.026840 -74.421143 5,850 174 282 -1216
2022-05-19 14:31:18 GMT 41.030350 -74.421577 5,900 174 282 -1216
2022-05-19 14:31:15 GMT 41.035053 -74.422134 5,975 174 282 -1152
2022-05-19 14:31:11 GMT 41.040390 -74.422791 6,050 175 283 -960
2022-05-19 14:31:07 GMT 41.048412 -74.423698 6,125 174 285 0
2022-05-19 14:31:01 GMT 41.054466 -74.424385 6,125 174 285 0
2022-05-19 14:30:58 GMT 41.057632 -74.424759 6,125 174 285 0
2022-05-19 14:30:55 GMT 41.062332 -74.425316 6,125 174 285 0
2022-05-19 14:30:51 GMT 41.067081 -74.425880 6,125 175 285 -64
2022-05-19 14:30:48 GMT 41.071152 -74.426270 6,125 175 283 -64
2022-05-19 14:30:45 GMT 41.073486 -74.426575 6,150 175 283 -128
2022-05-19 14:30:42 GMT 41.079529 -74.427185 6,150 175 283 -192
2022-05-19 14:30:39 GMT 41.082256 -74.427505 6,150 174 283 -128
2022-05-19 14:30:36 GMT 41.086960 -74.428062 6,175 174 281 -256
2022-05-19 14:30:33 GMT 41.088913 -74.428284 6,175 174 281 -320
2022-05-19 14:30:30 GMT 41.094734 -74.429001 6,200 175 280 -576
2022-05-19 14:30:27 GMT 41.097294 -74.429314 6,225 174 282 -1088
2022-05-19 14:30:24 GMT 41.102646 -74.429871 6,300 174 282 -1024
2022-05-19 14:30:20 GMT 41.106651 -74.430374 6,325 174 282 -1088
2022-05-19 14:30:17 GMT 41.111629 -74.431000 6,425 174 283 -1088
2022-05-19 14:30:13 GMT 41.115543 -74.431435 6,475 174 283 -1088
2022-05-19 14:30:09 GMT 41.120865 -74.432129 6,550 174 284 -1088
2022-05-19 14:30:05 GMT 41.127182 -74.432861 6,625 174 284 -1088
2022-05-19 14:30:00 GMT 41.137512 -74.434120 6,850 174 285 -1088
2022-05-19 14:29:56 GMT 41.137512 -74.434120 6,875 174 285 -1088
2022-05-19 14:29:53 GMT 41.142929 -74.434814 6,825 174 285 -1088
2022-05-19 14:29:49 GMT 41.147800 -74.435432 6,925 174 284 -1024
2022-05-19 14:29:45 GMT 41.153015 -74.436119 6,975 174 282 -896
2022-05-19 14:29:41 GMT 41.156925 -74.436615 7,025 174 282 -960
2022-05-19 14:29:38 GMT 41.161469 -74.437195 7,100 174 280 -704
2022-05-19 14:29:35 GMT 41.170532 -74.438354 7,125 174 280 -640
2022-05-19 14:29:31 GMT 41.170532 -74.438354 7,125 174 281 0
2022-05-19 14:29:28 GMT 41.175034 -74.438988 7,125 174 280 0
2022-05-19 14:29:23 GMT 41.180992 -74.439804 7,150 174 281 0
2022-05-19 14:29:20 GMT 41.184769 -74.440308 7,150 174 282 0
2022-05-19 14:29:17 GMT 41.187881 -74.440735 7,150 174 284 0
2022-05-19 14:29:14 GMT 41.192047 -74.441223 7,150 174 283 0
2022-05-19 14:29:09 GMT 41.200150 -74.442322 7,150 174 285 0
2022-05-19 14:29:05 GMT 41.204224 -74.442863 7,150 174 285 0
2022-05-19 14:29:02 GMT 41.207520 -74.443298 7,125 174 287 0
2022-05-19 14:28:57 GMT 41.215816 -74.444420 7,125 174 287 0
2022-05-19 14:28:54 GMT 41.218369 -74.444763 7,125 174 288 64
2022-05-19 14:28:51 GMT 41.223953 -74.445496 7,125 174 289 0
2022-05-19 14:28:44 GMT 41.232513 -74.446655 7,125 174 291 0
2022-05-19 14:28:38 GMT 41.239746 -74.447632 7,125 174 293 -64
2022-05-19 14:28:34 GMT 41.247299 -74.448669 7,150 174 293 0
2022-05-19 14:28:29 GMT 41.251801 -74.449226 7,150 174 295 0
2022-05-19 14:28:26 GMT 41.257645 -74.450012 7,150 174 296 0
2022-05-19 14:28:23 GMT 41.260506 -74.450417 7,150 174 296 0
2022-05-19 14:28:19 GMT 41.271561 -74.451843 7,150 174 296 -64
2022-05-19 14:28:15 GMT 41.271561 -74.451843 7,150 174 296 0
2022-05-19 14:28:11 GMT 41.277451 -74.452660 7,150 174 295 0
2022-05-19 14:28:07 GMT 41.282059 -74.453285 7,150 174 294 0
2022-05-19 14:28:03 GMT 41.289230 -74.454224 7,150 174 293 0
2022-05-19 14:27:56 GMT 41.297607 -74.455322 7,150 174 292 0
2022-05-19 14:27:52 GMT 41.302868 -74.456032 7,150 174 291 0
2022-05-19 14:27:44 GMT 41.313343 -74.457405 7,150 174 290 0
2022-05-19 14:27:41 GMT 41.317245 -74.457886 7,150 174 286 -64
2022-05-19 14:27:37 GMT 41.323490 -74.458588 7,150 174 289 0
2022-05-19 14:27:34 GMT 41.326859 -74.459045 7,150 174 288 0
2022-05-19 14:27:31 GMT 41.330841 -74.459534 7,150 174 288 0
2022-05-19 14:27:27 GMT 41.336014 -74.460152 7,150 174 286 0
2022-05-19 14:27:24 GMT 41.339813 -74.460632 7,150 174 286 0
2022-05-19 14:27:21 GMT 41.343925 -74.461151 7,150 174 286 -64
2022-05-19 14:27:17 GMT 41.349609 -74.461792 7,150 174 285 -64
2022-05-19 14:27:14 GMT 41.354324 -74.462402 7,150 174 284 -64
2022-05-19 14:27:08 GMT 41.368275 -74.464149 7,550 174 282 -576
2022-05-19 14:27:02 GMT 41.368275 -74.464149 7,200 174 282 -576
2022-05-19 14:26:59 GMT 41.372314 -74.464661 7,225 174 284 -896
2022-05-19 14:26:53 GMT 41.380692 -74.465759 7,350 174 284 -1024
2022-05-19 14:26:50 GMT 41.386337 -74.466515 7,425 173 284 -1216
2022-05-19 14:26:46 GMT 41.390015 -74.466995 7,475 173 285 -1216
2022-05-19 14:26:43 GMT 41.394997 -74.467697 7,550 173 285 -1216
2022-05-19 14:26:40 GMT 41.397766 -74.468079 7,600 173 285 -1216
2022-05-19 14:26:36 GMT 41.403030 -74.468826 7,675 173 285 -1216
2022-05-19 14:26:30 GMT 41.411057 -74.470062 7,800 173 285 -1216
2022-05-19 14:26:26 GMT 41.416168 -74.470825 7,875 173 286 -1216
2022-05-19 14:26:21 GMT 41.422760 -74.471825 7,975 173 286 -1216
2022-05-19 14:26:16 GMT 41.429352 -74.472824 8,075 173 286 -1216
2022-05-19 14:26:12 GMT 41.435715 -74.473824 8,175 173 287 -1216
2022-05-19 14:26:09 GMT 41.438244 -74.474213 8,225 173 287 -1216
2022-05-19 14:26:02 GMT 41.447113 -74.475571 8,400 173 289 -1216
2022-05-19 14:25:59 GMT 41.452148 -74.476318 8,425 173 289 -1216
2022-05-19 14:25:50 GMT 41.463318 -74.478065 8,725 172 290 -1216
2022-05-19 14:25:44 GMT 41.471558 -74.479378 8,725 172 290 -1216
2022-05-19 14:25:41 GMT 41.477188 -74.480316 8,800 172 290 -1216
2022-05-19 14:25:38 GMT 41.480667 -74.480873 8,850 172 291 -1216
2022-05-19 14:25:31 GMT 41.494152 -74.483154 9,025 172 291 -1216
2022-05-19 14:25:27 GMT 41.499390 -74.483994 9,100 172 292 -1216
2022-05-19 14:25:24 GMT 41.499390 -74.483994 9,125 172 292 -1280
2022-05-19 14:25:21 GMT 41.502716 -74.484558 9,175 172 292 -1280
2022-05-19 14:25:17 GMT 41.508118 -74.485451 9,275 172 292 -1216
2022-05-19 14:25:10 GMT 41.518707 -74.487244 9,625 172 293 -1280
2022-05-19 14:25:07 GMT 41.521568 -74.487686 9,475 172 293 -1280
2022-05-19 14:25:03 GMT 41.526260 -74.488487 9,550 172 293 -1280
2022-05-19 14:24:59 GMT 41.532604 -74.489540 10,050 172 294 -1088
2022-05-19 14:24:54 GMT 41.539585 -74.490692 9,750 172 293 -1280
2022-05-19 14:24:49 GMT 41.545944 -74.491798 10,050 172 294 -1088
2022-05-19 14:24:46 GMT 41.555649 -74.493484 9,925 173 297 64
2022-05-19 14:24:43 GMT 41.555649 -74.493484 10,000 172 294 -1088
2022-05-19 14:24:38 GMT 41.562302 -74.494652 10,025 172 294 -1088
2022-05-19 14:24:35 GMT 41.564167 -74.494972 10,100 173 297 64
2022-05-19 14:24:27 GMT 41.575470 -74.496857 10,150 173 298 0
2022-05-19 14:24:24 GMT 41.579544 -74.497482 10,150 173 297 0
2022-05-19 14:24:16 GMT 41.591583 -74.499413 10,150 173 298 64
2022-05-19 14:24:11 GMT 41.598724 -74.500542 10,150 173 300 0
2022-05-19 14:24:08 GMT 41.602844 -74.501160 10,125 173 300 0
2022-05-19 14:24:05 GMT 41.605457 -74.501610 10,125 173 300 0
2022-05-19 14:23:58 GMT 41.615139 -74.503143 10,150 172 301 -64
2022-05-19 14:23:55 GMT 41.619843 -74.503975 10,150 172 302 0
2022-05-19 14:23:50 GMT 41.631248 -74.506020 10,150 172 303 0
2022-05-19 14:23:46 GMT 41.631248 -74.506020 10,150 172 303 64
2022-05-19 14:23:43 GMT 41.637344 -74.507103 10,150 172 301 -64
2022-05-19 14:23:37 GMT 41.645554 -74.508530 10,150 178 293 128
2022-05-19 14:23:33 GMT 41.651047 -74.509468 10,150 174 297 64
2022-05-19 14:23:30 GMT 41.655441 -74.510025 10,125 235 264 64
2022-05-19 14:23:26 GMT 41.659645 -74.510239 10,125 211 273 0
2022-05-19 14:23:19 GMT 41.668762 -74.508965 10,125 196 281 0
2022-05-19 14:23:15 GMT 41.673019 -74.507408 10,125 201 279 0
2022-05-19 14:23:09 GMT 41.680206 -74.502907 10,125 217 271 -64
2022-05-19 14:23:05 GMT 41.686066 -74.497169 10,125 225 268 -64
2022-05-19 14:22:55 GMT 41.692703 -74.486244 10,125 243 262 0
2022-05-19 14:22:49 GMT 41.696136 -74.475258 10,125 274 260 0
2022-05-19 14:22:43 GMT 41.697121 -74.467819 10,125 268 260 64
2022-05-19 14:22:39 GMT 41.697166 -74.461113 10,150 278 261 -64
2022-05-19 14:22:33 GMT 41.695816 -74.450790 10,150 287 261 -128
2022-05-19 14:22:28 GMT 41.694214 -74.444298 10,150 290 263 0
2022-05-19 14:22:24 GMT 41.692558 -74.438057 10,150 290 263 64
2022-05-19 14:22:21 GMT 41.691486 -74.434036 10,150 290 264 64
2022-05-19 14:22:18 GMT 41.690277 -74.429626 10,150 290 265 0
2022-05-19 14:22:15 GMT 41.688927 -74.424515 10,150 290 265 -64
2022-05-19 14:22:11 GMT 41.687435 -74.418961 10,150 290 265 0
2022-05-19 14:22:08 GMT 41.685654 -74.412338 10,150 290 265 0
2022-05-19 14:22:05 GMT 41.684830 -74.409210 10,150 290 264 64
2022-05-19 14:22:02 GMT 41.683182 -74.403099 10,150 290 264 64
2022-05-19 14:21:56 GMT 41.680687 -74.393730 10,150 290 262 0
2022-05-19 14:21:53 GMT 41.679703 -74.390175 10,150 290 260 0
2022-05-19 14:21:50 GMT 41.678741 -74.386559 10,150 291 274 0
2022-05-19 14:21:46 GMT 41.676544 -74.378319 10,150 290 261 -64
2022-05-19 14:21:42 GMT 41.675446 -74.374382 10,150 290 260 0
2022-05-19 14:21:39 GMT 41.673981 -74.368950 10,150 291 256 0
2022-05-19 14:21:35 GMT 41.671886 -74.361282 10,150 291 258 64
2022-05-19 14:21:32 GMT 41.671284 -74.359177 10,150 291 258 -64
2022-05-19 14:21:27 GMT 41.669174 -74.351540 10,150 291 256 0
2022-05-19 14:21:22 GMT 41.666859 -74.343399 10,150 291 256 0
2022-05-19 14:21:17 GMT 41.664963 -74.336739 10,150 291 262 0
2022-05-19 14:21:14 GMT 41.663040 -74.330124 10,125 291 262 0
2022-05-19 14:21:11 GMT 41.662392 -74.327942 10,125 291 260 64
2022-05-19 14:21:06 GMT 41.659828 -74.318871 10,125 291 263 0
2022-05-19 14:21:01 GMT 41.657959 -74.312332 10,125 291 265 64
2022-05-19 14:20:58 GMT 41.656712 -74.307945 10,125 291 265 0
2022-05-19 14:20:53 GMT 41.654526 -74.300415 10,125 291 267 0
2022-05-19 14:20:50 GMT 41.653454 -74.296577 10,125 291 270 64
2022-05-19 14:20:47 GMT 41.651917 -74.291275 10,125 291 270 64
2022-05-19 14:20:44 GMT 41.650772 -74.287117 10,125 291 271 0
2022-05-19 14:20:41 GMT 41.647728 -74.276268 10,125 291 272 0
2022-05-19 14:20:38 GMT 41.647728 -74.276268 10,125 291 274 0
2022-05-19 14:20:35 GMT 41.646149 -74.270699 10,125 291 275 0
2022-05-19 14:20:30 GMT 41.644234 -74.263870 10,125 291 276 -64
2022-05-19 14:20:27 GMT 41.642899 -74.259216 10,125 291 279 0
2022-05-19 14:20:24 GMT 41.641663 -74.254723 10,125 291 279 0
2022-05-19 14:20:21 GMT 41.639721 -74.247711 10,125 291 282 0
2022-05-19 14:20:17 GMT 41.637863 -74.240990 10,125 290 284 64
2022-05-19 14:20:14 GMT 41.636993 -74.237679 10,125 275 293 0
2022-05-19 14:20:09 GMT 41.634926 -74.230209 10,125 290 291 64
2022-05-19 14:20:06 GMT 41.633575 -74.225227 10,125 290 293 0
2022-05-19 14:20:03 GMT 41.632187 -74.220009 10,125 290 292 64
2022-05-19 14:19:58 GMT 41.630035 -74.212006 10,125 290 294 64
2022-05-19 14:19:55 GMT 41.628269 -74.205490 10,125 290 296 64
2022-05-19 14:19:50 GMT 41.625641 -74.195671 10,125 289 296 -64
2022-05-19 14:19:47 GMT 41.624588 -74.191483 10,125 278 293 0
2022-05-19 14:19:43 GMT 41.623100 -74.185051 10,125 278 293 0
2022-05-19 14:19:40 GMT 41.621750 -74.177818 10,125 275 293 0
2022-05-19 14:19:37 GMT 41.621155 -74.172386 10,150 275 293 0
2022-05-19 14:19:32 GMT 41.620960 -74.163208 10,150 264 292 0
2022-05-19 14:19:27 GMT 41.621521 -74.156906 10,150 258 292 -64
2022-05-19 14:19:22 GMT 41.623844 -74.145645 10,150 247 292 0
2022-05-19 14:19:19 GMT 41.625412 -74.140800 10,125 240 293 64
2022-05-19 14:19:16 GMT 41.626465 -74.138306 10,150 240 293 64
2022-05-19 14:19:10 GMT 41.631573 -74.128654 10,125 222 297 0
2022-05-19 14:19:06 GMT 41.634933 -74.124130 10,125 222 297 0
2022-05-19 14:19:02 GMT 41.639812 -74.118942 10,125 206 308 0
2022-05-19 14:18:58 GMT 41.644653 -74.115112 10,125 206 308 0
2022-05-19 14:18:55 GMT 41.648712 -74.112648 10,150 199 312 -128
2022-05-19 14:18:51 GMT 41.653778 -74.110321 10,150 196 315 -64
2022-05-19 14:18:48 GMT 41.658691 -74.108589 10,150 193 318 64
2022-05-19 14:18:45 GMT 41.662445 -74.107529 10,150 193 318 0
2022-05-19 14:18:42 GMT 41.666904 -74.106232 10,150 192 316 0
2022-05-19 14:18:35 GMT 41.676544 -74.103531 10,150 192 314 0
2022-05-19 14:18:32 GMT 41.681671 -74.102097 10,150 192 312 64
2022-05-19 14:18:24 GMT 41.691441 -74.099335 10,150 193 311 128
2022-05-19 14:18:21 GMT 41.695541 -74.098167 10,150 193 308 64
2022-05-19 14:18:17 GMT 41.702545 -74.096039 10,150 193 308 64
2022-05-19 14:18:12 GMT 41.709229 -74.094170 10,150 192 304 -64
2022-05-19 14:18:06 GMT 41.717648 -74.091736 10,150 192 303 -64
2022-05-19 14:18:03 GMT 41.721233 -74.090714 10,150 192 303 -128
2022-05-19 14:18:00 GMT 41.724655 -74.089737 10,150 193 302 -128
2022-05-19 14:17:53 GMT 41.735012 -74.086815 10,150 193 314 -640
2022-05-19 14:17:44 GMT 41.748642 -74.082809 10,200 193 312 -512
2022-05-19 14:17:41 GMT 41.752441 -74.081680 10,350 193 324 -1472
2022-05-19 14:17:35 GMT 41.761963 -74.078873 10,350 193 324 -1472
2022-05-19 14:17:32 GMT 41.764202 -74.078255 10,375 193 325 -1600
2022-05-19 14:17:29 GMT 41.769508 -74.076721 10,500 193 328 -2496
2022-05-19 14:17:23 GMT 41.779449 -74.073822 10,800 193 329 -3136
2022-05-19 14:17:17 GMT 41.786777 -74.071678 11,075 193 330 -3200
2022-05-19 14:17:14 GMT 41.792179 -74.070084 11,250 193 330 -3200
2022-05-19 14:17:09 GMT 41.804260 -74.066513 11,775 193 331 -3200
2022-05-19 14:17:02 GMT 41.811310 -74.064461 11,925 193 331 -3136
2022-05-19 14:16:56 GMT 41.819691 -74.061966 12,675 193 331 -3200
2022-05-19 14:16:52 GMT 41.829437 -74.059090 12,425 193 332 -3200
2022-05-19 14:16:49 GMT 41.829437 -74.059090 12,600 193 331 -3200
2022-05-19 14:16:46 GMT 41.833054 -74.058029 12,825 193 331 -3200
2022-05-19 14:16:41 GMT 41.842220 -74.055328 12,975 193 332 -3200
2022-05-19 14:16:36 GMT 41.848183 -74.053535 13,425 193 332 -3200
2022-05-19 14:16:33 GMT 41.853580 -74.051872 13,400 193 332 -3200
2022-05-19 14:16:30 GMT 41.857769 -74.050598 13,525 193 331 -3200
2022-05-19 14:16:27 GMT 41.863907 -74.048721 13,750 193 332 -3200
2022-05-19 14:16:23 GMT 41.868393 -74.047417 14,225 193 331 -3200
2022-05-19 14:16:20 GMT 41.873363 -74.045937 14,125 193 331 -3200
2022-05-19 14:16:17 GMT 41.886585 -74.042038 14,400 193 331 -3200
2022-05-19 14:16:12 GMT 41.886585 -74.042038 14,525 193 331 -3200
2022-05-19 14:16:08 GMT 41.890450 -74.040886 14,750 193 330 -3264
2022-05-19 14:16:05 GMT 41.894966 -74.039612 15,825 193 330 -3200
2022-05-19 14:16:02 GMT 41.900925 -74.037827 15,025 193 330 -3264
2022-05-19 14:15:59 GMT 41.905113 -74.036545 15,175 193 329 -3264
2022-05-19 14:15:55 GMT 41.916382 -74.033226 15,500 193 324 -3264
2022-05-19 14:15:51 GMT 41.916382 -74.033226 15,625 193 326 -3328
2022-05-19 14:15:48 GMT 41.920242 -74.032143 15,825 193 324 -3264
2022-05-19 14:15:45 GMT 41.925831 -74.030411 15,975 193 319 -3264
2022-05-19 14:15:41 GMT 41.930923 -74.028877 16,125 193 320 -3264
2022-05-19 14:15:37 GMT 41.936417 -74.027252 16,400 193 313 -3328
2022-05-19 14:15:34 GMT 41.940674 -74.026001 16,775 193 311 -3200
2022-05-19 14:15:30 GMT 41.945614 -74.024605 16,750 193 312 -3328
2022-05-19 14:15:25 GMT 41.952923 -74.022430 17,125 193 309 -2688
2022-05-19 14:15:20 GMT 41.960186 -74.020325 17,150 193 308 -3072
2022-05-19 14:15:17 GMT 41.965347 -74.018761 17,350 193 309 -3200
2022-05-19 14:15:14 GMT 41.968185 -74.017952 17,800 193 311 -3328
2022-05-19 14:15:11 GMT 41.974045 -74.016205 17,825 193 311 -3264
2022-05-19 14:15:06 GMT 41.980110 -74.014320 17,975 193 312 -3328
2022-05-19 14:15:03 GMT 41.983887 -74.013206 18,525 193 313 -3264
2022-05-19 14:14:59 GMT 41.989288 -74.011581 18,250 193 314 -3264
2022-05-19 14:14:56 GMT 41.994820 -74.009911 18,450 193 315 -3200
2022-05-19 14:14:49 GMT 42.003433 -74.007416 18,750 193 318 -3008
2022-05-19 14:14:46 GMT 42.007874 -74.006088 18,900 193 320 -2816
2022-05-19 14:14:43 GMT 42.014374 -74.004097 19,100 193 319 -2560
2022-05-19 14:14:40 GMT 42.016651 -74.003456 19,175 193 317 -2560
2022-05-19 14:14:37 GMT 42.022842 -74.001595 19,400 193 312 -2624
2022-05-19 14:14:34 GMT 42.027374 -74.000282 19,475 193 312 -2624
2022-05-19 14:14:29 GMT 42.033325 -73.998535 19,650 193 315 -2560
2022-05-19 14:14:25 GMT 42.039871 -73.996666 19,900 192 317 -2560
2022-05-19 14:14:21 GMT 42.043900 -73.995476 20,075 192 320 -2496
2022-05-19 14:14:17 GMT 42.049438 -73.993919 20,125 192 321 -2496
2022-05-19 14:14:14 GMT 42.056168 -73.992043 20,325 192 325 -2496
2022-05-19 14:14:11 GMT 42.059853 -73.991005 20,450 193 329 -2432
2022-05-19 14:14:08 GMT 42.062832 -73.990112 20,500 193 329 -2432
2022-05-19 14:14:04 GMT 42.070606 -73.987877 20,700 193 334 -2112
2022-05-19 14:14:01 GMT 42.072876 -73.987175 20,725 193 337 -1920
2022-05-19 14:13:58 GMT 42.078369 -73.985489 20,875 193 340 -2432
2022-05-19 14:13:55 GMT 42.087460 -73.982765 21,075 193 343 -1664
2022-05-19 14:13:52 GMT 42.087460 -73.982765 21,100 193 343 -1664
2022-05-19 14:13:48 GMT 42.094116 -73.980751 21,200 193 340 -1536
2022-05-19 14:13:43 GMT 42.103317 -73.978004 21,325 193 335 -1600
2022-05-19 14:13:37 GMT 42.110275 -73.975876 21,450 193 332 -1536
2022-05-19 14:13:34 GMT 42.118607 -73.973381 27,275 193 324 -1344
2022-05-19 14:13:28 GMT 42.125336 -73.971382 21,675 193 321 -1344
2022-05-19 14:13:24 GMT 42.129684 -73.970070 21,775 193 317 -1344
2022-05-19 14:13:21 GMT 42.134308 -73.968636 22,225 192 329 384
2022-05-19 14:13:17 GMT 42.140156 -73.966927 21,925 193 314 -1216
2022-05-19 14:13:14 GMT 42.144287 -73.965767 21,950 193 314 -1216
2022-05-19 14:13:10 GMT 42.148674 -73.964493 22,075 192 320 -576
2022-05-19 14:13:06 GMT 42.155846 -73.962387 22,075 192 318 -768
2022-05-19 14:13:03 GMT 42.160355 -73.961143 22,100 192 325 192
2022-05-19 14:13:00 GMT 42.164749 -73.959900 22,100 192 325 192
2022-05-19 14:12:56 GMT 42.170879 -73.958237 22,075 192 333 -192
2022-05-19 14:12:53 GMT 42.174789 -73.957153 22,100 192 338 -704
2022-05-19 14:12:50 GMT 42.185165 -73.954155 22,150 193 345 -960
2022-05-19 14:12:47 GMT 42.185165 -73.954155 22,225 193 348 -1088
2022-05-19 14:12:44 GMT 42.190105 -73.952744 22,275 193 355 -1344
2022-05-19 14:12:40 GMT 42.195099 -73.951286 22,450 193 365 -2368
2022-05-19 14:12:37 GMT 42.201645 -73.949348 22,500 193 370 -2816
2022-05-19 14:12:34 GMT 42.206955 -73.947792 22,650 193 370 -2816
2022-05-19 14:12:31 GMT 42.210297 -73.946793 22,725 193 373 -3008
2022-05-19 14:12:28 GMT 42.214005 -73.945663 22,900 193 377 -3328
2022-05-19 14:12:25 GMT 42.219296 -73.944122 23,150 193 378 -3520
2022-05-19 14:12:22 GMT 42.231857 -73.940300 23,375 193 383 -4608
2022-05-19 14:12:19 GMT 42.231857 -73.940300 23,550 193 384 -5248
2022-05-19 14:12:15 GMT 42.237217 -73.938690 24,600 193 385 -5312
2022-05-19 14:12:11 GMT 42.244354 -73.936554 24,350 193 386 -5376
2022-05-19 14:12:08 GMT 42.249619 -73.934990 27,275 193 387 -5376
2022-05-19 14:12:05 GMT 42.255371 -73.933266 24,950 193 387 -5376
2022-05-19 14:12:02 GMT 42.260635 -73.931732 25,275 193 388 -5440
2022-05-19 14:11:59 GMT 42.265198 -73.930389 25,425 193 389 -5440
2022-05-19 14:11:56 GMT 42.270454 -73.928787 25,675 193 390 -5376
2022-05-19 14:11:53 GMT 42.275764 -73.927254 25,925 193 390 -5376
2022-05-19 14:11:50 GMT 42.282791 -73.925148 26,225 193 391 -5376
2022-05-19 14:11:47 GMT 42.288097 -73.923492 26,825 193 392 -5376
2022-05-19 14:11:44 GMT 42.291962 -73.922340 26,575 193 392 -5376
2022-05-19 14:11:41 GMT 42.297134 -73.920761 26,900 193 393 -5376
2022-05-19 14:11:38 GMT 42.303696 -73.918823 27,450 193 395 -5312
2022-05-19 14:11:35 GMT 42.308121 -73.917450 27,550 193 396 -5184
2022-05-19 14:11:32 GMT 42.315628 -73.915268 27,725 193 396 -5184
2022-05-19 14:11:28 GMT 42.319382 -73.914101 28,550 193 396 -5184
2022-05-19 14:11:25 GMT 42.326553 -73.911995 28,250 193 398 -4992
2022-05-19 14:11:22 GMT 42.329956 -73.910957 28,400 193 399 -4928
2022-05-19 14:11:19 GMT 42.337921 -73.908653 28,775 193 401 -4928
2022-05-19 14:11:16 GMT 42.344242 -73.906754 29,100 193 403 -4672
2022-05-19 14:11:13 GMT 42.352993 -73.904198 29,350 193 402 -4672
2022-05-19 14:11:10 GMT 42.352993 -73.904198 29,500 193 402 -5376
2022-05-19 14:11:07 GMT 42.359711 -73.902161 29,875 193 402 -5568
2022-05-19 14:11:04 GMT 42.363514 -73.901009 30,100 193 401 -4608
2022-05-19 14:11:01 GMT 42.369705 -73.899155 30,350 193 401 -4416
2022-05-19 14:10:58 GMT 42.375153 -73.897552 30,850 193 398 -3456
2022-05-19 14:10:55 GMT 42.381622 -73.895638 30,750 193 398 -3968
2022-05-19 14:10:52 GMT 42.385803 -73.894417 31,550 193 396 -3072
2022-05-19 14:10:49 GMT 42.392796 -73.892319 31,150 193 397 -3456
2022-05-19 14:10:46 GMT 42.396751 -73.891167 31,325 193 396 -3328
2022-05-19 14:10:43 GMT 42.403221 -73.889252 31,400 193 397 -3136
2022-05-19 14:10:39 GMT 42.409470 -73.887428 31,650 193 396 -2944
2022-05-19 14:10:36 GMT 42.415558 -73.885612 31,750 193 396 -2624
2022-05-19 14:10:33 GMT 42.420227 -73.884178 31,975 193 396 -1920
2022-05-19 14:10:30 GMT 42.427368 -73.882057 31,950 193 395 -1344
2022-05-19 14:10:27 GMT 42.437714 -73.878998 32,000 193 394 -256
2022-05-19 14:10:23 GMT 42.437714 -73.878998 32,000 193 395 0
2022-05-19 14:10:20 GMT 42.444122 -73.877129 32,000 193 396 0
2022-05-19 14:10:17 GMT 42.449310 -73.875580 32,000 193 396 0
2022-05-19 14:10:13 GMT 42.456299 -73.873505 32,000 193 398 64
2022-05-19 14:10:10 GMT 42.461334 -73.872009 32,000 193 399 64
2022-05-19 14:10:07 GMT 42.472870 -73.868576 32,000 193 399 0
2022-05-19 14:10:04 GMT 42.472870 -73.868576 32,000 193 400 0
2022-05-19 14:10:01 GMT 42.478317 -73.867012 32,000 193 401 0
2022-05-19 14:09:58 GMT 42.481758 -73.865936 32,000 193 401 64
2022-05-19 14:09:55 GMT 42.494839 -73.862106 32,000 193 402 64
2022-05-19 14:09:52 GMT 42.494839 -73.862106 32,000 193 403 0
2022-05-19 14:09:48 GMT 42.500473 -73.860397 32,000 193 404 0
2022-05-19 14:09:45 GMT 42.508484 -73.858025 32,000 193 405 0
2022-05-19 14:09:41 GMT 42.515648 -73.855843 32,000 193 409 0
2022-05-19 14:09:38 GMT 42.521141 -73.854248 32,000 193 407 64
2022-05-19 14:09:35 GMT 42.524445 -73.853226 32,000 193 407 0
2022-05-19 14:09:31 GMT 42.532543 -73.850800 32,000 193 408 0
2022-05-19 14:09:28 GMT 42.537338 -73.849396 32,000 193 410 0
2022-05-19 14:09:25 GMT 42.543251 -73.847610 32,000 193 409 0
2022-05-19 14:09:22 GMT 42.556194 -73.843712 32,000 193 410 0
2022-05-19 14:09:18 GMT 42.556194 -73.843712 32,000 193 410 0
2022-05-19 14:09:14 GMT 42.563049 -73.841675 32,000 193 410 0
2022-05-19 14:09:11 GMT 42.567902 -73.840172 32,000 193 410 0
2022-05-19 14:09:08 GMT 42.576050 -73.837738 32,000 193 410 0
2022-05-19 14:09:04 GMT 42.581589 -73.836052 32,000 193 410 0
2022-05-19 14:09:01 GMT 42.588272 -73.834053 32,000 193 410 0
2022-05-19 14:08:58 GMT 42.594040 -73.832344 32,000 193 410 0
2022-05-19 14:08:55 GMT 42.600128 -73.830498 32,000 193 410 0
2022-05-19 14:08:52 GMT 42.606079 -73.828690 32,000 193 409 0
2022-05-19 14:08:49 GMT 42.610519 -73.827377 32,000 193 410 0
2022-05-19 14:08:46 GMT 42.614384 -73.826210 32,000 193 409 0
2022-05-19 14:08:43 GMT 42.620499 -73.824318 32,000 193 409 0
2022-05-19 14:08:39 GMT 42.630112 -73.821449 32,000 193 409 0
2022-05-19 14:08:36 GMT 42.634918 -73.820007 32,000 193 409 0
2022-05-19 14:08:32 GMT 42.643066 -73.817574 32,000 193 409 0
2022-05-19 14:08:29 GMT 42.646599 -73.816498 32,000 193 409 64
2022-05-19 14:08:26 GMT 42.651581 -73.815018 32,000 193 408 0
2022-05-19 14:08:23 GMT 42.658421 -73.812920 32,000 193 408 0
2022-05-19 14:08:18 GMT 42.666321 -73.810585 32,000 193 407 0
2022-05-19 14:08:15 GMT 42.671127 -73.809151 32,000 193 406 0
2022-05-19 14:08:12 GMT 42.677929 -73.807114 32,000 193 406 0
2022-05-19 14:08:09 GMT 42.684723 -73.805031 32,000 193 405 0
2022-05-19 14:08:05 GMT 42.691101 -73.803085 32,000 193 405 0
2022-05-19 14:08:01 GMT 42.698784 -73.800789 32,000 193 403 0
2022-05-19 14:07:58 GMT 42.709900 -73.797478 32,000 193 403 0
2022-05-19 14:07:55 GMT 42.709900 -73.797478 32,000 193 403 0
2022-05-19 14:07:52 GMT 42.716660 -73.795425 32,000 193 402 0
2022-05-19 14:07:48 GMT 42.722107 -73.793823 32,000 193 401 0
2022-05-19 14:07:44 GMT 42.728806 -73.791794 32,000 193 401 -64
2022-05-19 14:07:41 GMT 42.735306 -73.789795 32,000 193 400 0
2022-05-19 14:07:38 GMT 42.741806 -73.787865 32,000 193 398 0
2022-05-19 14:07:35 GMT 42.746521 -73.786430 32,025 193 398 0
2022-05-19 14:07:32 GMT 42.751556 -73.784927 32,000 193 397 64
2022-05-19 14:07:29 GMT 42.756226 -73.783493 32,000 193 397 64
2022-05-19 14:07:26 GMT 42.760696 -73.782135 32,000 193 396 64
2022-05-19 14:07:23 GMT 42.766251 -73.780434 32,000 193 393 128
2022-05-19 14:07:20 GMT 42.773392 -73.778313 32,000 193 395 128
2022-05-19 14:07:16 GMT 42.781265 -73.775940 32,000 193 393 128
2022-05-19 14:07:13 GMT 42.784103 -73.775063 32,000 193 393 128
2022-05-19 14:07:09 GMT 42.792072 -73.772621 31,975 193 391 0
2022-05-19 14:07:06 GMT 42.797054 -73.771149 32,000 193 389 320
2022-05-19 14:07:03 GMT 42.803238 -73.769264 31,975 193 389 320
2022-05-19 14:07:00 GMT 42.807816 -73.767883 31,950 193 389 896
2022-05-19 14:06:57 GMT 42.813400 -73.766167 31,925 193 389 896
2022-05-19 14:06:54 GMT 42.818516 -73.764626 31,900 193 389 960
2022-05-19 14:06:51 GMT 42.823078 -73.763252 31,850 193 389 1024
2022-05-19 14:06:48 GMT 42.830612 -73.760933 31,800 193 390 1024
2022-05-19 14:06:44 GMT 42.836609 -73.759079 31,700 193 389 960
2022-05-19 14:06:41 GMT 42.841373 -73.757629 31,675 193 389 960
2022-05-19 14:06:38 GMT 42.846451 -73.756073 31,625 193 390 1024
2022-05-19 14:06:35 GMT 42.851715 -73.754478 31,550 193 390 1024
2022-05-19 14:06:32 GMT 42.857201 -73.752792 31,550 193 390 1024
2022-05-19 14:06:28 GMT 42.864441 -73.750648 31,475 193 391 1024
2022-05-19 14:06:25 GMT 42.869339 -73.749115 31,425 193 391 1088
2022-05-19 14:06:22 GMT 42.875702 -73.747200 31,375 193 391 1024
2022-05-19 14:06:18 GMT 42.882797 -73.745087 31,300 193 392 1088
2022-05-19 14:06:15 GMT 42.888107 -73.743492 31,200 193 392 1088
2022-05-19 14:06:12 GMT 42.899414 -73.740044 31,150 193 392 1088
2022-05-19 14:06:08 GMT 42.899414 -73.740044 31,100 193 392 1024
2022-05-19 14:06:05 GMT 42.906685 -73.737816 31,050 193 393 1088
2022-05-19 14:06:02 GMT 42.909897 -73.736900 31,000 193 393 1024
2022-05-19 14:05:59 GMT 42.915203 -73.735268 30,950 193 393 1024
2022-05-19 14:05:55 GMT 42.929214 -73.731033 30,825 193 393 1088
2022-05-19 14:05:51 GMT 42.929214 -73.731033 30,825 193 393 1088
2022-05-19 14:05:48 GMT 42.935780 -73.729050 30,775 193 393 1088
2022-05-19 14:05:44 GMT 42.942902 -73.726891 30,700 193 394 1088
2022-05-19 14:05:40 GMT 42.950352 -73.724670 30,625 193 394 1088
2022-05-19 14:05:37 GMT 42.953938 -73.723557 30,575 193 394 1088
2022-05-19 14:05:34 GMT 42.961384 -73.721336 30,525 193 394 1024
2022-05-19 14:05:31 GMT 42.966202 -73.719856 30,000 193 390 0
2022-05-19 14:05:27 GMT 42.972466 -73.718002 30,425 193 394 1088
2022-05-19 14:05:24 GMT 42.983322 -73.714684 30,350 193 394 1024
2022-05-19 14:05:21 GMT 42.988678 -73.713020 30,300 193 394 1024
2022-05-19 14:05:18 GMT 42.988678 -73.713020 30,275 193 395 1024
2022-05-19 14:05:15 GMT 42.994034 -73.711365 30,225 193 395 1024
2022-05-19 14:05:11 GMT 43.007034 -73.707405 30,125 193 395 768
2022-05-19 14:05:08 GMT 43.014175 -73.705246 30,100 193 395 768
2022-05-19 14:05:04 GMT 43.014175 -73.705246 30,050 193 395 768
2022-05-19 14:05:01 GMT 43.020081 -73.703445 30,000 193 394 448
2022-05-19 14:04:57 GMT 43.025253 -73.701851 30,000 193 394 192
2022-05-19 14:04:53 GMT 43.033073 -73.699493 30,000 193 392 0
2022-05-19 14:04:50 GMT 43.038574 -73.697762 30,000 193 391 0
2022-05-19 14:04:46 GMT 43.046158 -73.695503 30,000 193 389 0
2022-05-19 14:04:43 GMT 43.051254 -73.693924 30,000 193 388 0
2022-05-19 14:04:40 GMT 43.056152 -73.692459 30,000 193 388 0
2022-05-19 14:04:37 GMT 43.062469 -73.690475 30,000 193 387 0
2022-05-19 14:04:33 GMT 43.068920 -73.688507 30,000 193 386 0
2022-05-19 14:04:29 GMT 43.075378 -73.686516 30,000 193 386 -64
2022-05-19 14:04:26 GMT 43.081284 -73.684731 30,000 193 385 -64
2022-05-19 14:04:22 GMT 43.087357 -73.682816 30,000 193 383 0
2022-05-19 14:04:18 GMT 43.095474 -73.680321 30,000 193 381 0
2022-05-19 14:04:14 GMT 43.101700 -73.678406 30,000 193 381 0
2022-05-19 14:04:11 GMT 43.108070 -73.676407 30,025 193 380 0
2022-05-19 14:04:08 GMT 43.111313 -73.675400 30,025 193 380 0
2022-05-19 14:04:04 GMT 43.118359 -73.673203 30,000 193 379 0
2022-05-19 14:04:01 GMT 43.123806 -73.671570 30,000 193 376 0
2022-05-19 14:03:58 GMT 43.129440 -73.669785 30,000 193 374 0
2022-05-19 14:03:55 GMT 43.134842 -73.668121 30,000 193 375 0
2022-05-19 14:03:51 GMT 43.140610 -73.666328 30,000 193 372 0
2022-05-19 14:03:48 GMT 43.146801 -73.664444 30,000 193 371 0
2022-05-19 14:03:44 GMT 43.153503 -73.662346 30,000 193 369 0
2022-05-19 14:03:41 GMT 43.158485 -73.660843 30,025 193 367 64
2022-05-19 14:03:38 GMT 43.161140 -73.659996 29,925 193 359 128
2022-05-19 14:03:34 GMT 43.169220 -73.657516 30,000 193 363 128
2022-05-19 14:03:29 GMT 43.177944 -73.654831 30,000 193 361 128
2022-05-19 14:03:26 GMT 43.181530 -73.653786 30,000 193 359 64
2022-05-19 14:03:23 GMT 43.186569 -73.652214 30,000 193 359 64
2022-05-19 14:03:20 GMT 43.191422 -73.650681 29,975 193 353 1024
2022-05-19 14:03:17 GMT 43.196102 -73.649208 29,875 193 355 384
2022-05-19 14:03:13 GMT 43.203964 -73.646790 29,925 193 355 832
2022-05-19 14:03:10 GMT 43.212765 -73.644104 29,825 193 354 1024
2022-05-19 14:03:07 GMT 43.212765 -73.644104 29,825 193 354 1024
2022-05-19 14:03:03 GMT 43.219620 -73.641998 29,750 193 354 1024
2022-05-19 14:02:59 GMT 43.225388 -73.640274 29,700 193 353 1024
2022-05-19 14:02:56 GMT 43.230038 -73.638870 29,525 193 353 1024
2022-05-19 14:02:52 GMT 43.237068 -73.636711 29,575 193 353 1024
2022-05-19 14:02:49 GMT 43.242466 -73.635078 29,500 193 352 1024
2022-05-19 14:02:46 GMT 43.245163 -73.634201 29,475 193 352 1024
2022-05-19 14:02:43 GMT 43.250706 -73.632530 29,425 193 352 1024
2022-05-19 14:02:40 GMT 43.254524 -73.631355 29,375 193 352 1024
2022-05-19 14:02:37 GMT 43.261227 -73.629387 29,300 193 351 1024
2022-05-19 14:02:34 GMT 43.265045 -73.628212 29,250 193 351 1024
2022-05-19 14:02:31 GMT 43.270447 -73.626579 29,225 193 351 1024
2022-05-19 14:02:28 GMT 43.275471 -73.625076 29,175 193 350 1024
2022-05-19 14:02:25 GMT 43.278168 -73.624237 29,125 193 350 1024
2022-05-19 14:02:22 GMT 43.282780 -73.622849 29,075 193 350 1024
2022-05-19 14:02:19 GMT 43.287155 -73.621544 29,050 193 349 1024
2022-05-19 14:02:16 GMT 43.298996 -73.617981 28,950 193 348 1024
2022-05-19 14:02:13 GMT 43.304031 -73.616447 28,900 193 347 1024
2022-05-19 14:02:10 GMT 43.304031 -73.616447 28,875 193 347 1024
2022-05-19 14:02:07 GMT 43.307919 -73.615265 28,825 193 346 1024
2022-05-19 14:02:04 GMT 43.319504 -73.611717 28,725 193 345 1024
2022-05-19 14:01:59 GMT 43.319504 -73.611717 28,700 193 345 1024
2022-05-19 14:01:56 GMT 43.324165 -73.610298 28,650 193 344 1024
2022-05-19 14:01:52 GMT 43.330215 -73.608398 28,575 193 344 1024
2022-05-19 14:01:49 GMT 43.336594 -73.606438 28,525 193 343 1024
2022-05-19 14:01:45 GMT 43.341530 -73.604935 28,450 193 343 1024
2022-05-19 14:01:42 GMT 43.345860 -73.603622 28,425 193 342 1024
2022-05-19 14:01:39 GMT 43.351120 -73.601990 28,325 193 342 1024
2022-05-19 14:01:36 GMT 43.357452 -73.600098 28,300 193 341 1024
2022-05-19 14:01:33 GMT 43.360519 -73.599136 28,250 193 341 1024
2022-05-19 14:01:29 GMT 43.367615 -73.596962 28,175 193 339 1024
2022-05-19 14:01:26 GMT 43.371464 -73.595840 28,100 193 339 1024
2022-05-19 14:01:23 GMT 43.376350 -73.594337 28,100 193 339 1024
2022-05-19 14:01:19 GMT 43.382950 -73.592300 28,025 193 338 1024
2022-05-19 14:01:15 GMT 43.389313 -73.590324 27,950 193 337 1024
2022-05-19 14:01:12 GMT 43.392223 -73.589432 27,875 193 336 1024
2022-05-19 14:01:07 GMT 43.401302 -73.586624 27,800 193 335 1024
2022-05-19 14:01:04 GMT 43.405540 -73.585312 27,725 193 335 1088
2022-05-19 14:01:01 GMT 43.409042 -73.584251 27,725 193 334 1088
2022-05-19 14:00:57 GMT 43.421356 -73.580421 27,600 193 333 1280
2022-05-19 14:00:54 GMT 43.421356 -73.580421 27,550 193 333 1408
2022-05-19 14:00:51 GMT 43.424812 -73.579361 27,525 193 333 1408
2022-05-19 14:00:46 GMT 43.433239 -73.576813 27,375 193 333 1408
2022-05-19 14:00:43 GMT 43.436417 -73.575821 27,300 193 333 1408
2022-05-19 14:00:39 GMT 43.440903 -73.574417 27,275 193 333 1408
2022-05-19 14:00:35 GMT 43.448090 -73.572182 27,150 193 333 1408
2022-05-19 14:00:32 GMT 43.453674 -73.570473 27,075 193 332 1408
2022-05-19 14:00:29 GMT 43.456654 -73.569557 27,025 193 332 1408
2022-05-19 14:00:25 GMT 43.464020 -73.567329 26,900 193 332 1408
2022-05-19 14:00:22 GMT 43.468105 -73.566086 26,800 193 332 1408
2022-05-19 14:00:19 GMT 43.471252 -73.565155 26,800 193 331 1472
2022-05-19 14:00:15 GMT 43.478905 -73.562881 26,675 193 331 1408
2022-05-19 14:00:12 GMT 43.482491 -73.561775 26,600 193 331 1408
2022-05-19 14:00:09 GMT 43.486816 -73.560493 26,550 193 331 1408
2022-05-19 14:00:04 GMT 43.495193 -73.557938 26,425 193 330 1472
2022-05-19 14:00:01 GMT 43.498810 -73.556854 26,375 193 330 1472
2022-05-19 13:59:58 GMT 43.503719 -73.555367 26,275 193 330 1536
2022-05-19 13:59:54 GMT 43.510002 -73.553398 26,175 193 330 1536
2022-05-19 13:59:51 GMT 43.513733 -73.552315 26,100 193 329 1536
2022-05-19 13:59:48 GMT 43.518494 -73.550850 26,025 193 329 1536
2022-05-19 13:59:43 GMT 43.526390 -73.548431 25,900 193 329 1536
2022-05-19 13:59:39 GMT 43.532455 -73.546570 25,800 193 328 1536
2022-05-19 13:59:35 GMT 43.537811 -73.544907 25,425 193 328 1536
2022-05-19 13:59:32 GMT 43.542126 -73.543594 25,625 193 328 1536
2022-05-19 13:59:28 GMT 43.549713 -73.541328 25,500 193 328 1536
2022-05-19 13:59:22 GMT 43.564423 -73.536987 25,350 193 328 1536
2022-05-19 13:59:18 GMT 43.564423 -73.536987 25,050 192 327 1536
2022-05-19 13:59:13 GMT 43.570335 -73.535286 25,150 192 327 1536
2022-05-19 13:59:09 GMT 43.577316 -73.533348 25,025 192 327 1536
2022-05-19 13:59:05 GMT 43.581161 -73.532265 24,975 192 326 1536
2022-05-19 13:59:01 GMT 43.588722 -73.530121 24,850 192 325 1536
2022-05-19 13:58:56 GMT 43.596817 -73.527855 24,725 192 325 1536
2022-05-19 13:58:53 GMT 43.601105 -73.526718 24,600 192 324 1536
2022-05-19 13:58:50 GMT 43.604782 -73.525681 24,525 192 324 1536
2022-05-19 13:58:47 GMT 43.609673 -73.524368 24,500 192 324 1536
2022-05-19 13:58:43 GMT 43.614651 -73.522995 24,350 192 323 1536
2022-05-19 13:58:40 GMT 43.620518 -73.521423 24,300 191 323 1536
2022-05-19 13:58:36 GMT 43.625061 -73.520248 24,250 191 322 1600
2022-05-19 13:58:33 GMT 43.628429 -73.519394 24,150 191 322 1664
2022-05-19 13:58:30 GMT 43.632706 -73.518272 24,100 191 322 1728
2022-05-19 13:58:27 GMT 43.638565 -73.516800 23,975 191 323 1728
2022-05-19 13:58:24 GMT 43.644470 -73.515396 23,850 190 322 1728
2022-05-19 13:58:21 GMT 43.648270 -73.514503 23,800 190 323 1728
2022-05-19 13:58:17 GMT 43.653259 -73.513351 23,725 189 322 1728
2022-05-19 13:58:13 GMT 43.660786 -73.511742 23,500 191 319 1792
2022-05-19 13:58:10 GMT 43.663330 -73.511246 23,500 190 321 1728
2022-05-19 13:58:07 GMT 43.669144 -73.509773 23,400 195 317 1728
2022-05-19 13:58:02 GMT 43.675095 -73.507668 23,275 201 311 1728
2022-05-19 13:57:59 GMT 43.678520 -73.505928 23,200 205 308 1600
2022-05-19 13:57:55 GMT 43.683289 -73.502876 22,750 209 304 1728
2022-05-19 13:57:50 GMT 43.694023 -73.494087 22,825 212 302 1664
2022-05-19 13:57:47 GMT 43.694023 -73.494087 22,800 211 303 1664
2022-05-19 13:57:44 GMT 43.696793 -73.491829 22,800 211 303 1664
2022-05-19 13:57:40 GMT 43.702469 -73.487549 22,675 208 304 1728
2022-05-19 13:57:37 GMT 43.706825 -73.484413 22,575 207 305 1856
2022-05-19 13:57:34 GMT 43.709244 -73.482758 22,500 205 306 1856
2022-05-19 13:57:28 GMT 43.717068 -73.478523 22,325 194 314 1856
2022-05-19 13:57:25 GMT 43.722141 -73.476761 22,225 190 318 1792
2022-05-19 13:57:19 GMT 43.731812 -73.475540 21,300 175 330 1728
2022-05-19 13:57:15 GMT 43.746140 -73.476692 21,900 175 331 1792
2022-05-19 13:57:10 GMT 43.746140 -73.476692 21,750 175 332 1792
2022-05-19 13:57:07 GMT 43.748566 -73.477013 21,725 175 332 1728
2022-05-19 13:57:04 GMT 43.762939 -73.478546 21,350 175 331 1728
2022-05-19 13:56:59 GMT 43.762939 -73.478546 21,450 175 331 1728
2022-05-19 13:56:54 GMT 43.770264 -73.479309 21,325 175 330 1728
2022-05-19 13:56:48 GMT 43.778702 -73.480225 21,150 175 330 1728
2022-05-19 13:56:42 GMT 43.786469 -73.481033 21,025 175 330 1728
2022-05-19 13:56:37 GMT 43.795303 -73.481926 20,850 175 330 1664
2022-05-19 13:56:33 GMT 43.801231 -73.482582 20,750 175 330 1728
2022-05-19 13:56:27 GMT 43.811615 -73.483688 20,550 175 330 1728
2022-05-19 13:56:24 GMT 43.813889 -73.483910 20,500 175 330 1728
2022-05-19 13:56:21 GMT 43.821167 -73.484741 20,375 175 329 1792
2022-05-19 13:56:15 GMT 43.828766 -73.485504 20,225 175 329 1856
2022-05-19 13:56:11 GMT 43.834534 -73.486145 20,100 175 329 1792
2022-05-19 13:56:08 GMT 43.840302 -73.486778 20,000 175 328 1792
2022-05-19 13:56:05 GMT 43.843502 -73.487091 19,900 175 327 1792
2022-05-19 13:56:02 GMT 43.848019 -73.487549 19,850 175 327 1728
2022-05-19 13:55:54 GMT 43.859940 -73.488701 19,625 176 326 1728
2022-05-19 13:55:50 GMT 43.865242 -73.489182 19,225 176 324 1728
2022-05-19 13:55:44 GMT 43.875320 -73.490044 19,350 176 324 1728
2022-05-19 13:55:40 GMT 43.882935 -73.490685 19,200 176 324 1728
2022-05-19 13:55:37 GMT 43.886845 -73.491013 19,125 176 324 1728
2022-05-19 13:55:34 GMT 43.891312 -73.491409 19,025 176 323 1728
2022-05-19 13:55:30 GMT 43.896561 -73.491829 18,925 176 323 1792
2022-05-19 13:55:24 GMT 43.906303 -73.492714 18,750 176 323 1728
2022-05-19 13:55:21 GMT 43.914185 -73.493423 18,650 176 323 1728
2022-05-19 13:55:18 GMT 43.914185 -73.493423 18,600 176 323 1728
2022-05-19 13:55:15 GMT 43.918221 -73.493828 18,525 176 323 1728
2022-05-19 13:55:12 GMT 43.930344 -73.494957 18,375 175 323 1728
2022-05-19 13:55:08 GMT 43.930344 -73.494957 18,300 176 321 1728
2022-05-19 13:55:05 GMT 43.933319 -73.495277 18,225 175 323 1728
2022-05-19 13:55:02 GMT 43.939121 -73.495789 18,125 176 322 1728
2022-05-19 13:54:58 GMT 43.944195 -73.496315 18,025 176 322 1728
2022-05-19 13:54:55 GMT 43.948383 -73.496704 17,950 176 322 1728
2022-05-19 13:54:52 GMT 43.952408 -73.497063 17,875 176 322 1728
2022-05-19 13:54:49 GMT 43.958633 -73.497643 17,750 176 321 1728
2022-05-19 13:54:43 GMT 43.967514 -73.498405 17,575 176 319 1856
2022-05-19 13:54:40 GMT 43.971954 -73.498795 17,500 176 319 1856
2022-05-19 13:54:35 GMT 43.977859 -73.499237 17,225 176 318 2368
2022-05-19 13:54:32 GMT 43.982136 -73.499580 17,275 176 318 2048
2022-05-19 13:54:28 GMT 43.989944 -73.500198 16,925 177 319 2368
2022-05-19 13:54:24 GMT 43.994797 -73.500565 16,950 176 319 2368
2022-05-19 13:54:20 GMT 44.001549 -73.501083 16,750 177 319 2368
2022-05-19 13:54:17 GMT 44.004528 -73.501213 16,675 178 319 2368
2022-05-19 13:54:14 GMT 44.010441 -73.501411 16,525 181 319 2368
2022-05-19 13:54:11 GMT 44.013371 -73.501350 16,450 182 318 2432
2022-05-19 13:54:07 GMT 44.020447 -73.500954 16,125 188 315 2496
2022-05-19 13:54:02 GMT 44.026978 -73.500069 16,075 189 315 2496
2022-05-19 13:53:57 GMT 44.033020 -73.498856 15,900 190 314 2560
2022-05-19 13:53:54 GMT 44.037918 -73.497704 15,825 190 315 2496
2022-05-19 13:53:51 GMT 44.042980 -73.496445 15,625 191 315 2496
2022-05-19 13:53:48 GMT 44.048428 -73.495132 15,475 190 316 2432
2022-05-19 13:53:44 GMT 44.051590 -73.494347 15,375 190 316 2496
2022-05-19 13:53:41 GMT 44.056641 -73.493103 15,225 190 317 2432
2022-05-19 13:53:38 GMT 44.062454 -73.491699 15,075 190 317 2496
2022-05-19 13:53:35 GMT 44.065464 -73.490952 14,750 190 317 2432
2022-05-19 13:53:30 GMT 44.072166 -73.489380 14,800 191 319 2432
2022-05-19 13:53:26 GMT 44.078823 -73.487679 14,625 191 319 2496
2022-05-19 13:53:22 GMT 44.085808 -73.485977 14,425 191 319 2496
2022-05-19 13:53:15 GMT 44.095676 -73.483429 14,150 190 319 2368
2022-05-19 13:53:10 GMT 44.101639 -73.481995 14,000 190 320 2432
2022-05-19 13:53:07 GMT 44.107224 -73.480782 13,850 190 320 2432
2022-05-19 13:53:01 GMT 44.115692 -73.478798 13,625 191 319 2304
2022-05-19 13:52:56 GMT 44.122375 -73.477135 13,450 191 318 2112
2022-05-19 13:52:53 GMT 44.127045 -73.475990 13,325 190 318 2304
2022-05-19 13:52:49 GMT 44.131668 -73.474899 13,225 190 318 2304
2022-05-19 13:52:43 GMT 44.141392 -73.472641 12,975 190 315 2176
2022-05-19 13:52:40 GMT 44.145721 -73.471657 12,850 190 316 2240
2022-05-19 13:52:36 GMT 44.152328 -73.470085 12,700 190 315 2176
2022-05-19 13:52:33 GMT 44.155655 -73.469284 12,600 190 315 2240
2022-05-19 13:52:30 GMT 44.160664 -73.468124 12,475 190 314 2176
2022-05-19 13:52:25 GMT 44.167145 -73.466537 12,325 191 313 2240
2022-05-19 13:52:22 GMT 44.170853 -73.465637 12,225 191 313 2304
2022-05-19 13:52:18 GMT 44.176254 -73.464302 12,075 190 313 2112
2022-05-19 13:52:14 GMT 44.181976 -73.462891 11,950 190 311 2112
2022-05-19 13:52:09 GMT 44.190765 -73.460785 11,725 191 309 2176
2022-05-19 13:52:05 GMT 44.196556 -73.459343 11,575 191 308 2176
2022-05-19 13:52:02 GMT 44.200653 -73.458321 11,425 190 307 2112
2022-05-19 13:51:58 GMT 44.204700 -73.457336 11,375 190 307 2112
2022-05-19 13:51:53 GMT 44.211452 -73.455727 11,225 190 307 2048
2022-05-19 13:51:50 GMT 44.216080 -73.454590 11,100 190 307 1984
2022-05-19 13:51:43 GMT 44.225922 -73.452171 10,900 190 307 1984
2022-05-19 13:51:34 GMT 44.239517 -73.448837 10,625 191 299 1536
2022-05-19 13:51:27 GMT 44.248215 -73.446739 10,475 190 295 1472
2022-05-19 13:51:22 GMT 44.254234 -73.445274 10,375 190 292 1216
2022-05-19 13:51:18 GMT 44.261681 -73.443466 10,275 190 290 640
2022-05-19 13:51:12 GMT 44.267624 -73.442032 10,250 191 287 576
2022-05-19 13:51:09 GMT 44.272713 -73.440788 10,200 190 285 448
2022-05-19 13:51:02 GMT 44.281128 -73.438766 10,175 191 283 64
2022-05-19 13:50:56 GMT 44.288361 -73.436935 10,175 191 284 64
2022-05-19 13:50:51 GMT 44.294586 -73.435364 10,175 191 285 64
2022-05-19 13:50:47 GMT 44.301205 -73.433754 10,175 191 285 0
2022-05-19 13:50:42 GMT 44.308235 -73.432014 10,175 191 286 0
2022-05-19 13:50:37 GMT 44.312805 -73.430855 10,175 191 287 0
2022-05-19 13:50:31 GMT 44.321316 -73.428734 10,175 190 289 0
2022-05-19 13:50:25 GMT 44.330154 -73.426598 10,175 190 290 0
2022-05-19 13:50:21 GMT 44.335049 -73.425385 10,175 191 291 0
2022-05-19 13:50:15 GMT 44.341984 -73.423706 10,175 191 292 -64
2022-05-19 13:50:11 GMT 44.348640 -73.421967 10,175 191 293 -64
2022-05-19 13:50:07 GMT 44.354370 -73.420517 10,175 191 294 -64
2022-05-19 13:50:00 GMT 44.363022 -73.418427 10,175 190 298 128
2022-05-19 13:49:54 GMT 44.370239 -73.416740 10,175 190 300 128
2022-05-19 13:49:49 GMT 44.377365 -73.415001 10,150 191 301 0
2022-05-19 13:49:40 GMT 44.391541 -73.411560 10,150 190 302 256
2022-05-19 13:49:35 GMT 44.398727 -73.409798 10,125 190 301 192
2022-05-19 13:49:27 GMT 44.407902 -73.407562 10,100 191 299 448
2022-05-19 13:49:22 GMT 44.414932 -73.405685 10,050 191 296 640
2022-05-19 13:49:18 GMT 44.419647 -73.404434 10,000 191 294 960
2022-05-19 13:49:15 GMT 44.425407 -73.403008 9,950 190 294 704
2022-05-19 13:49:09 GMT 44.433563 -73.401100 9,875 190 290 1088
2022-05-19 13:49:01 GMT 44.442307 -73.399071 9,175 190 276 2496
2022-05-19 13:48:58 GMT 44.446865 -73.398048 9,700 189 283 1600
2022-05-19 13:48:53 GMT 44.454594 -73.396378 9,450 189 279 3008
2022-05-19 13:48:47 GMT 44.460461 -73.395103 9,225 190 276 2496
2022-05-19 13:48:38 GMT 44.472980 -73.392021 8,800 192 271 3008
2022-05-19 13:48:32 GMT 44.479477 -73.390175 8,500 190 270 3520
2022-05-19 13:48:27 GMT 44.485737 -73.388474 8,225 190 270 3520
2022-05-19 13:48:16 GMT 44.498817 -73.385727 7,650 189 268 3200
2022-05-19 13:48:07 GMT 44.511295 -73.383781 7,125 182 264 2816
2022-05-19 13:48:02 GMT 44.517288 -73.383766 6,925 175 257 2368
2022-05-19 13:47:56 GMT 44.524017 -73.384293 6,725 174 256 2496
2022-05-19 13:47:45 GMT 44.536560 -73.386513 6,200 168 249 2688
2022-05-19 13:47:37 GMT 44.546356 -73.390045 5,750 157 248 3648
2022-05-19 13:47:34 GMT 44.548050 -73.390961 5,650 156 247 3712
2022-05-19 13:47:25 GMT 44.557987 -73.398048 5,175 151 242 2432
2022-05-19 13:47:14 GMT 44.568089 -73.405754 4,700 151 234 3072
2022-05-19 13:47:04 GMT 44.578098 -73.413254 4,175 152 225 2624
2022-05-19 13:46:53 GMT 44.588154 -73.420494 3,700 152 214 2432
2022-05-19 13:46:44 GMT 44.596069 -73.426277 3,350 151 198 2432
2022-05-19 13:46:35 GMT 44.602398 -73.431076 2,825 150 186 2368
2022-05-19 13:46:32 GMT 44.604679 -73.432816 2,900 150 187 2304
2022-05-19 13:46:22 GMT 44.612595 -73.439285 2,450 148 182 2176
2022-05-19 13:46:10 GMT 44.620277 -73.448891 2,000 154 151

Making use of Plane Finder data

You are free to use the raw flight data, aircraft information and images provided in this report for your own purposes provided the data is correctly attributed to Plane Finder. We ask that you please credit Plane Finder and link to planefinder.net in close proximity to the content.

Optionally one of the following logos (no smaller then 150x24px) can be used and must link to planefinder.net

Embedding the Plane Finder map

You are welcome to embed the Plane Finder playback map on your website to offer visitors a more interactive experience. We suggest using the following HTML code:

<iframe src="//planefinder.net/data/report/UA5043-N969SW-7700-squawk-2022-05-19/map" width="800" height="600" seamless="seamless"></iframe>

Where our data comes from

Plane Finder has a global network of data feeds and antenna radars that receive data broadcast directly from aircraft. The primary technologies used are ADS-B and MLAT. We also show feeds from the FAA and a FLARM glider feed.

Click here to find out more about the Plane Finder network.

How we collect our data